Return to Metar
METAR CYNL 211700Z AUTO 33005KT 9SM BKN006 OVC011 02/01 A2947 RMK AO1 SLP004
SPECI CYNL 211620Z AUTO 31005KT 9SM BKN006 OVC013 01/01 A2947 RMK AO1 SLP004
SPECI CYNL 211619Z AUTO 30005KT 9SM SCT006 OVC013 01/01 A2947 RMK AO1 SLP004
METAR CYNL 211600Z AUTO 30005KT 9SM BKN005 OVC014 01/01 A2947 RMK AO1 SLP003
SPECI CYNL 211525Z AUTO 31005KT 3SM BKN005 BKN009 OVC016 01/01 A2947 RMK AO1 PRESRR SLP003
SPECI CYNL 211521Z AUTO 30005KT 2 1/2SM BKN005 OVC017 01/01 A2947 RMK AO1 PRESRR SLP003
SPECI CYNL 211512Z AUTO 31004KT 3SM SCT005 BKN007 BKN015 01/01 A2947 RMK AO1 PRESRR SLP002
SPECI CYNL 211510Z AUTO 30005KT 2 1/2SM BKN005 OVC017 01/01 A2947 RMK AO1 PRESRR SLP002
SPECI CYNL 211509Z AUTO 30005KT 2 1/2SM SCT005 BKN015 OVC018 01/01 A2947 RMK AO1 PRESRR SLP002
SPECI CYNL 211508Z AUTO 29005KT 3SM SCT005 BKN013 OVC017 01/01 A2946 RMK AO1 PRESRR SLP002
METAR CYNL 211500Z AUTO 30005KT 3SM VV009 01/01 A2946 RMK AO1 PRESRR SLP000
SPECI CYNL 211459Z AUTO 30005KT 3SM VV008 01/01 A2946 RMK AO1 PRESRR SLP000
SPECI CYNL 211454Z AUTO 31004KT 2SM VV009 01/01 A2946 RMK AO1 SLP999
SPECI CYNL 211452Z AUTO 30006KT 2 1/2SM VV012 01/01 A2946 RMK AO1 SLP999
SPECI CYNL 211451Z AUTO 30005KT 2 1/2SM FEW006 SCT012 OVC016 01/01 A2946 RMK AO1 SLP999
SPECI CYNL 211450Z AUTO 31004KT 3SM FEW006 BKN015 OVC019 01/01 A2946 RMK AO1 SLP999
SPECI CYNL 211442Z AUTO 30005KT 3SM BKN014 OVC018 01/01 A2946 RMK AO1 SLP999
SPECI CYNL 211441Z AUTO 30005KT 2 1/2SM OVC014 01/01 A2946 RMK AO1 SLP999
SPECI CYNL 211440Z AUTO 30005KT 2SM SCT012 OVC015 01/01 A2945 RMK AO1 SLP998
SPECI CYNL 211439Z AUTO 30004KT 2SM OVC014 01/01 A2945 RMK AO1 SLP998
SPECI CYNL 211436Z AUTO 30005KT 2SM VV015 01/01 A2945 RMK AO1 SLP997
SPECI CYNL 211429Z AUTO 29006KT 1 1/2SM VV016 01/01 A2945 RMK AO1 SLP996
SPECI CYNL 211417Z AUTO 29005KT 1 3/4SM FEW003 BKN012 OVC015 01/01 A2944 RMK AO1 SLP995
SPECI CYNL 211403Z AUTO 30004KT 2 1/2SM SCT003 OVC014 01/01 A2943 RMK AO1 SLP991
SPECI CYNL 211401Z AUTO 31004KT 4SM SCT003 OVC014 01/01 A2943 RMK AO1 SLP990
METAR CYNL 211400Z AUTO 31004KT 4SM SCT003 BKN005 OVC014 01/01 A2943 RMK AO1 SLP989
SPECI CYNL 211353Z AUTO 32003KT 3SM BKN003 BKN006 OVC015 01/01 A2943 RMK AO1 SLP991
SPECI CYNL 211351Z AUTO 31003KT 2SM BKN003 BKN006 OVC015 01/01 A2943 RMK AO1 SLP991
SPECI CYNL 211350Z AUTO 30003KT 1 1/2SM VV003 01/01 A2943 RMK AO1 SLP991
SPECI CYNL 211347Z AUTO 29003KT 1SM VV003 01/01 A2943 RMK AO1 SLP991
SPECI CYNL 211344Z AUTO 29002KT 3/4SM BKN003 OVC015 01/01 A2944 RMK AO1 SLP992
SPECI CYNL 211340Z AUTO 30003KT 1 1/4SM SCT003 BKN006 OVC015 01/01 A2943 RMK AO1 SLP991
SPECI CYNL 211339Z AUTO 30004KT 1 3/4SM SCT003 BKN007 OVC015 01/01 A2944 RMK AO1 SLP992
SPECI CYNL 211338Z AUTO 30004KT 2SM SCT003 BKN006 OVC015 01/01 A2944 RMK AO1 SLP992
SPECI CYNL 211332Z AUTO 29003KT 5SM FEW002 BKN006 BKN015 01/01 A2944 RMK AO1 SLP992
SPECI CYNL 211329Z AUTO 29003KT 3SM FEW002 SCT007 BKN015 01/01 A2944 RMK AO1 SLP992
SPECI CYNL 211328Z AUTO 29003KT 2SM FEW002 SCT007 BKN015 01/01 A2943 RMK AO1 SLP991
SPECI CYNL 211327Z AUTO 30002KT 1 1/2SM FEW002 SCT007 BKN015 01/01 A2943 RMK AO1 SLP991
SPECI CYNL 211325Z AUTO 00000KT 1SM SCT002 BKN015 01/01 A2943 RMK AO1 SLP990
SPECI CYNL 211322Z AUTO 00000KT 3/4SM SCT002 OVC015 01/01 A2943 RMK AO1 SLP992
SPECI CYNL 211321Z AUTO 00000KT 5/8SM SCT002 OVC015 01/01 A2944 RMK AO1 SLP992
SPECI CYNL 211320Z AUTO 00000KT 3/4SM SCT002 OVC015 01/01 A2944 RMK AO1 SLP992
SPECI CYNL 211318Z AUTO 00000KT 1/2SM SCT002 OVC015 01/01 A2943 RMK AO1 SLP991
METAR CYNL 211300Z AUTO 00000KT 1/4SM VV002 01/01 A2944 RMK AO1 SLP993
SPECI CYNL 211248Z AUTO 00000KT 1/4SM VV002 01/01 A2944 RMK AO1 SLP992
SPECI CYNL 211241Z AUTO 00000KT 1/8SM VV002 01/01 A2944 RMK AO1 SLP992
SPECI CYNL 211226Z AUTO 00000KT 1/4SM VV002 01/01 A2943 RMK AO1 SLP991
SPECI CYNL 211223Z AUTO 00000KT 1/8SM VV002 01/01 A2943 RMK AO1 SLP991
METAR CYNL 211200Z AUTO 00000KT 1/4SM VV002 01/01 A2943 RMK AO1 SLP991
SPECI CYNL 211143Z AUTO 00000KT 1/4SM VV002 01/01 A2943 RMK AO1 PRESRR SLP988
SPECI CYNL 211137Z AUTO 00000KT 1/8SM VV002 01/01 A2943 RMK AO1 PRESRR SLP989
SPECI CYNL 211136Z AUTO 00000KT 1/4SM VV002 01/01 A2943 RMK AO1 PRESRR SLP989
SPECI CYNL 211129Z AUTO 00000KT 1/8SM VV002 01/01 A2943 RMK AO1 PRESRR SLP991
SPECI CYNL 211113Z AUTO 00000KT 1/4SM VV002 01/01 A2944 RMK AO1 PRESRR SLP993
SPECI CYNL 211110Z AUTO 00000KT 1/8SM VV002 01/01 A2944 RMK AO1 PRESRR SLP993
METAR CYNL 211100Z AUTO 00000KT 1/8SM VV003 01/01 A2944 RMK AO1 PRESRR SLP993
SPECI CYNL 211053Z AUTO 00000KT 1/8SM VV003 01/01 A2943 RMK AO1 PRESFR SLP991
METAR CYNL 211000Z AUTO 00000KT 1/8SM VV002 01/01 A2941 RMK AO1 PRESFR SLP981
METAR CYNL 210900Z AUTO 00000KT 1/8SM VV002 01/01 A2942 RMK AO1 SLP986
SPECI CYNL 210801Z AUTO 12004KT 1/8SM VV002 01/01 A2944 RMK AO1 SLP992
METAR CYNL 210800Z AUTO 12004KT 1/4SM VV002 01/01 A2944 RMK AO1 SLP992
SPECI CYNL 210756Z AUTO 12004KT 1/4SM VV002 01/01 A2944 RMK AO1 SLP992
SPECI CYNL 210753Z AUTO 12005KT 1/8SM VV002 01/01 A2944 RMK AO1 SLP993
SPECI CYNL 210750Z AUTO 13005KT 1/4SM VV002 01/01 A2944 RMK AO1 SLP994
SPECI CYNL 210745Z AUTO 13004KT 1/8SM VV002 01/01 A2944 RMK AO1 SLP993
SPECI CYNL 210738Z AUTO 13005KT 1/4SM VV002 01/01 A2944 RMK AO1 SLP995
METAR CYNL 210700Z AUTO 11004KT 1/8SM VV002 01/01 A2944 RMK AO1 SLP994
SPECI CYNL 210642Z AUTO 12005KT 1/8SM VV002 01/01 A2945 RMK AO1 SLP996
METAR CYNL 210600Z AUTO 11006KT 1/4SM VV002 01/01 A2944 RMK AO1 SLP992
METAR CYNL 210500Z AUTO 12009KT 3/8SM VV002 01/01 A2944 RMK AO1 SLP995
SPECI CYNL 210423Z AUTO 11008KT 5/8SM VV002 01/00 A2944 RMK AO1 SLP995
SPECI CYNL 210422Z AUTO 11009KT 3/4SM VV002 01/00 A2944 RMK AO1 SLP995
SPECI CYNL 210421Z AUTO 12009KT 5/8SM VV002 01/00 A2944 RMK AO1 SLP995
SPECI CYNL 210419Z AUTO 11010KT 3/4SM VV002 01/00 A2944 RMK AO1 SLP994
SPECI CYNL 210414Z AUTO 11009KT 1 1/4SM VV002 01/00 A2944 RMK AO1 SLP995
SPECI CYNL 210410Z AUTO 11008G16KT 1 3/4SM VV002 01/00 A2944 RMK AO1 SLP993
SPECI CYNL 210406Z AUTO 11012KT 1 3/4SM VV003 01/00 A2944 RMK AO1 SLP993
SPECI CYNL 210404Z AUTO 11010G16KT 2 1/2SM VV003 01/00 A2944 RMK AO1 SLP994
SPECI CYNL 210402Z AUTO 11009G16KT 3SM OVC002 01/00 A2944 RMK AO1 SLP994
METAR CYNL 210400Z AUTO 11012KT 2 1/2SM OVC002 01/00 A2944 RMK AO1 SLP994
SPECI CYNL 210359Z AUTO 11012KT 2 1/2SM OVC002 01/00 A2944 RMK AO1 SLP994
SPECI CYNL 210339Z AUTO 11008G17KT 9SM OVC002 01/00 A2944 RMK AO1 SLP994
METAR CYNL 210300Z AUTO 11011G19KT 9SM OVC003 01/01 A2944 RMK AO1 SLP996
METAR CYNL 210200Z AUTO 09012G17KT 9SM OVC003 01/01 A2944 RMK AO1 SLP994
METAR CYNL 210100Z AUTO 09012G22KT 9SM OVC003 01/01 A2945 RMK AO1 PRESFR SLP998
METAR CYNL 210000Z AUTO 10011G17KT 8SM OVC004 01/00 A2948 RMK AO1 SLP009
METAR CYNL 202300Z AUTO 09013G22KT 9SM OVC003 01/00 A2948 RMK AO1 PRESFR SLP009
METAR CYNL 202200Z AUTO 10013G18KT 9SM OVC003 01/01 A2951 RMK AO1 SLP021
METAR CYNL 202100Z AUTO 09014KT 9SM OVC003 01/01 A2953 RMK AO1 PRESFR SLP026
METAR CYNL 202000Z AUTO 10012G17KT 9SM OVC003 01/01 A2955 RMK AO1 SLP033
SPECI CYNL 201949Z AUTO 10011KT 9SM OVC003 01/01 A2956 RMK AO1 PRESFR SLP036
SPECI CYNL 201937Z AUTO 11010KT 7SM OVC002 01/01 A2957 RMK AO1 PRESFR SLP039
METAR CYNL 201900Z AUTO 11011G18KT 6SM OVC003 01/01 A2956 RMK AO1 PRESFR SLP035
SPECI CYNL 201851Z AUTO 10011G17KT 3SM OVC003 01/01 A2956 RMK AO1 SLP036
SPECI CYNL 201847Z AUTO 10012KT 2 1/2SM OVC003 01/01 A2956 RMK AO1 SLP035
METAR CYNL 201800Z AUTO 11010KT 9SM OVC004 01/01 A2958 RMK AO1 SLP043
METAR CYNL 201700Z AUTO 10011KT 9SM OVC004 01/00 A2957 RMK AO1 PRESFR SLP040
METAR CYNL 201600Z AUTO 12014KT 9SM OVC004 01/00 A2960 RMK AO1 PRESFR SLP049
METAR CYNL 201500Z AUTO 13012G21KT 8SM OVC003 00/00 A2962 RMK AO1 SLP056
METAR CYNL 201400Z AUTO 13010G19KT 5SM OVC003 00/00 A2962 RMK AO1 SLP058
SPECI CYNL 201339Z AUTO 12013KT 6SM OVC003 00/00 A2962 RMK AO1 SLP058
SPECI CYNL 201329Z AUTO 13009G17KT 3SM OVC002 00/00 A2962 RMK AO1 SLP058
SPECI CYNL 201326Z AUTO 13011KT 2SM OVC002 00/00 A2962 RMK AO1 SLP057
SPECI CYNL 201309Z AUTO 12010G20KT 1 3/4SM OVC002 00/M00 A2962 RMK AO1 SLP058
SPECI CYNL 201304Z AUTO 12012G20KT 2SM OVC002 M00/M00 A2962 RMK AO1 SLP058
SPECI CYNL 201301Z AUTO 12014KT 1 3/4SM OVC002 M00/M00 A2962 RMK AO1 SLP058
METAR CYNL 201300Z AUTO 12011G18KT 1 1/4SM OVC002 M00/M00 A2962 RMK AO1 SLP059
SPECI CYNL 201258Z AUTO 12011G16KT 1SM OVC002 M00/M00 A2962 RMK AO1 SLP059
SPECI CYNL 201257Z AUTO 12010G16KT 3/4SM VV002 M00/M00 A2962 RMK AO1 SLP060
SPECI CYNL 201217Z AUTO 12008KT 1/4SM VV002 M01/M01 A2963 RMK AO1 SLP061
METAR CYNL 201200Z AUTO 13008G16KT 1/8SM VV002 M01/M01 A2962 RMK AO1 SLP060
SPECI CYNL 201158Z AUTO 13009G16KT 1/8SM VV002 M01/M01 A2963 RMK AO1 SLP060
SPECI CYNL 201118Z AUTO 14010G16KT 5/8SM VV002 M01/M01 A2962 RMK AO1 SLP060
SPECI CYNL 201117Z AUTO 14009G16KT 3/4SM VV002 M01/M01 A2963 RMK AO1 SLP060
SPECI CYNL 201116Z AUTO 14008G16KT 1SM VV002 M01/M01 A2963 RMK AO1 SLP061
SPECI CYNL 201114Z AUTO 13009G16KT 3/4SM OVC002 M01/M01 A2963 RMK AO1 SLP061
SPECI CYNL 201111Z AUTO 14011G16KT 5/8SM VV002 M01/M01 A2962 RMK AO1 SLP060
SPECI CYNL 201108Z AUTO 14010KT 1SM VV002 M01/M01 A2963 RMK AO1 SLP060
SPECI CYNL 201107Z AUTO 14011KT 3/4SM OVC002 M01/M01 A2963 RMK AO1 SLP061
SPECI CYNL 201102Z AUTO 14009KT 5/8SM OVC002 M01/M01 A2962 RMK AO1 SLP060
METAR CYNL 201100Z AUTO 13009KT 1SM OVC002 M01/M01 A2962 RMK AO1 SLP060
SPECI CYNL 201059Z AUTO 13008KT 1 1/2SM OVC002 M01/M01 A2962 RMK AO1 SLP060
SPECI CYNL 201057Z AUTO 14009KT 1 1/4SM OVC002 M01/M01 A2963 RMK AO1 SLP061
SPECI CYNL 201055Z AUTO 13007KT 1 1/4SM VV003 M01/M01 A2963 RMK AO1 SLP061
SPECI CYNL 201054Z AUTO 13007KT 1 1/4SM OVC002 M01/M01 A2963 RMK AO1 SLP061
SPECI CYNL 201046Z AUTO 14008KT 1 3/4SM OVC002 M01/M01 A2963 RMK AO1 SLP060
SPECI CYNL 201045Z AUTO 13007KT 2SM OVC002 M01/M01 A2963 RMK AO1 SLP060
SPECI CYNL 201042Z AUTO 13006KT 3SM OVC002 M01/M01 A2963 RMK AO1 SLP060
SPECI CYNL 201025Z AUTO 12009KT 6SM OVC003 M01/M01 A2962 RMK AO1 SLP058
SPECI CYNL 201024Z AUTO 12010KT 2 1/2SM OVC003 M01/M01 A2962 RMK AO1 SLP058
SPECI CYNL 201022Z AUTO 13009KT 1 3/4SM OVC003 M01/M01 A2962 RMK AO1 SLP058
SPECI CYNL 201020Z AUTO 12009KT 2 1/2SM OVC003 M01/M01 A2962 RMK AO1 SLP058
METAR CYNL 201000Z AUTO 14007KT 4SM OVC003 M01/M01 A2962 RMK AO1 SLP059
SPECI CYNL 200951Z AUTO 14007KT 3SM OVC003 M01/M01 A2962 RMK AO1 SLP058
SPECI CYNL 200950Z AUTO 14008KT 2 1/2SM OVC003 M01/M01 A2962 RMK AO1 SLP058
SPECI CYNL 200947Z AUTO 15007KT 3SM BKN003 OVC005 M00/M01 A2963 RMK AO1 SLP060
SPECI CYNL 200941Z AUTO 15005KT 2 1/2SM OVC004 M00/M01 A2963 RMK AO1 SLP061
METAR CYNL 200900Z AUTO 16011KT 9SM OVC004 M00/M01 A2963 RMK AO1 SLP060
SPECI CYNL 200852Z AUTO 16009KT 6SM OVC004 M00/M01 A2962 RMK AO1 SLP058
SPECI CYNL 200851Z AUTO 16009KT 5SM OVC005 M00/M01 A2962 RMK AO1 SLP058
SPECI CYNL 200839Z AUTO 16008KT 4SM BKN004 OVC006 M00/M01 A2963 RMK AO1 SLP060
SPECI CYNL 200825Z AUTO 17009G17KT 9SM OVC005 M00/M01 A2962 RMK AO1 SLP057
SPECI CYNL 200821Z AUTO 16010G17KT 9SM BKN004 BKN006 OVC009 M00/M01 A2961 RMK AO1 SLP056
SPECI CYNL 200820Z AUTO 16010G17KT 8SM BKN005 OVC009 M00/M01 A2961 RMK AO1 SLP055
SPECI CYNL 200817Z AUTO 15010G17KT 6SM BKN004 OVC013 M00/M01 A2961 RMK AO1 SLP055
METAR CYNL 200800Z AUTO 15008KT 4SM SCT005 BKN008 BKN010 M00/M01 A2961 RMK AO1 SLP055
SPECI CYNL 200757Z AUTO 15007KT 2 1/2SM VV009 M00/M01 A2961 RMK AO1 SLP055
SPECI CYNL 200755Z AUTO 16007KT 2SM VV010 M00/M01 A2961 RMK AO1 SLP056
SPECI CYNL 200752Z AUTO 16008KT 1 3/4SM SCT006 BKN010 OVC013 M00/M01 A2961 RMK AO1 SLP056
SPECI CYNL 200750Z AUTO 16008KT 1 3/4SM SCT006 BKN009 BKN010 M00/M01 A2961 RMK AO1 SLP056
SPECI CYNL 200749Z AUTO 16008KT 2SM SCT006 BKN009 BKN010 M00/M01 A2962 RMK AO1 SLP056
SPECI CYNL 200748Z AUTO 16008KT 2SM SCT006 OVC010 M00/M01 A2962 RMK AO1 SLP057
SPECI CYNL 200747Z AUTO 16008KT 2 1/2SM SCT007 BKN009 OVC010 M00/M01 A2962 RMK AO1 SLP056
SPECI CYNL 200745Z AUTO 16009KT 3SM SCT007 OVC010 M00/M01 A2961 RMK AO1 SLP056
SPECI CYNL 200744Z AUTO 16009KT 2 1/2SM SCT007 OVC010 M00/M01 A2961 RMK AO1 SLP056
SPECI CYNL 200739Z AUTO 16008KT 2SM VV008 M00/M01 A2962 RMK AO1 SLP057
SPECI CYNL 200736Z AUTO 15007KT 1 1/2SM VV008 M00/M01 A2962 RMK AO1 SLP057
SPECI CYNL 200730Z AUTO 15008KT 1 1/4SM VV007 M00/M01 A2962 RMK AO1 SLP058
SPECI CYNL 200728Z AUTO 16005KT 1 1/2SM VV007 M00/M01 A2962 RMK AO1 SLP058
SPECI CYNL 200725Z AUTO 16006KT 1 1/4SM VV008 M00/M01 A2962 RMK AO1 SLP058
SPECI CYNL 200724Z AUTO 16006KT 1 1/2SM VV008 M00/M01 A2962 RMK AO1 SLP057
SPECI CYNL 200723Z AUTO 16005KT 1 1/4SM VV010 M00/M01 A2962 RMK AO1 SLP057
SPECI CYNL 200722Z AUTO 15006KT 1 1/2SM VV010 M00/M01 A2962 RMK AO1 SLP057
SPECI CYNL 200718Z AUTO 16008KT 1 1/4SM VV011 M00/M01 A2962 RMK AO1 SLP058
SPECI CYNL 200717Z AUTO 16007KT 1 1/2SM VV010 M00/M01 A2962 RMK AO1 SLP058
SPECI CYNL 200715Z AUTO 15008KT 1 3/4SM VV009 M00/M01 A2962 RMK AO1 SLP057
SPECI CYNL 200714Z AUTO 15008KT 2SM VV008 M00/M01 A2962 RMK AO1 SLP057
SPECI CYNL 200710Z AUTO 15006KT 1 1/2SM VV008 M00/M01 A2962 RMK AO1 SLP058
SPECI CYNL 200706Z AUTO 15006KT 1 1/4SM VV008 M00/M01 A2962 RMK AO1 SLP057
SPECI CYNL 200703Z AUTO 15007KT 1 1/2SM VV007 M00/M01 A2962 RMK AO1 SLP057
METAR CYNL 200700Z AUTO 15009KT 1SM SCT006 BKN008 OVC011 M00/M01 A2962 RMK AO1 SLP058
SPECI CYNL 200658Z AUTO 16008KT 1 1/4SM SCT005 BKN008 OVC012 M00/M01 A2962 RMK AO1 SLP058
SPECI CYNL 200656Z AUTO 16008KT 1 3/4SM SCT005 BKN008 OVC012 M00/M01 A2962 RMK AO1 SLP059
SPECI CYNL 200655Z AUTO 16008KT 2 1/2SM SCT005 BKN008 OVC012 M00/M01 A2962 RMK AO1 SLP059
SPECI CYNL 200643Z AUTO 15007KT 9SM BKN008 OVC013 M00/M01 A2962 RMK AO1 SLP058
SPECI CYNL 200619Z AUTO 14008KT 9SM SCT006 OVC013 M00/M01 A2962 RMK AO1 SLP057
METAR CYNL 200600Z AUTO 15008KT 8SM OVC006 M00/M01 A2961 RMK AO1 SLP056
METAR CYNL 200500Z AUTO 15008KT 9SM BKN006 OVC018 M00/M01 A2961 RMK AO1 SLP055
SPECI CYNL 200405Z AUTO 14007KT 6SM SCT007 BKN009 OVC017 M01/M01 A2960 RMK AO1 SLP053
METAR CYNL 200400Z AUTO 14008KT 4SM SCT007 BKN010 OVC018 M01/M01 A2960 RMK AO1 SLP052
SPECI CYNL 200353Z AUTO 15007KT 3SM BKN007 BKN009 OVC022 M01/M01 A2960 RMK AO1 SLP052
SPECI CYNL 200350Z AUTO 14009KT 2SM BKN007 BKN010 OVC022 M01/M01 A2960 RMK AO1 SLP052
SPECI CYNL 200347Z AUTO 15008KT 6SM SCT007 BKN009 BKN011 M01/M01 A2960 RMK AO1 SLP052
SPECI CYNL 200345Z AUTO 15009KT 4SM VV010 M01/M01 A2960 RMK AO1 SLP052
SPECI CYNL 200344Z AUTO 15009KT 3SM SCT007 BKN009 BKN011 M01/M01 A2960 RMK AO1 SLP052
SPECI CYNL 200343Z AUTO 14008KT 2 1/2SM SCT007 BKN010 OVC022 M01/M01 A2960 RMK AO1 SLP052
SPECI CYNL 200342Z AUTO 14009KT 1 3/4SM BKN008 BKN011 OVC022 M01/M01 A2960 RMK AO1 SLP052
SPECI CYNL 200341Z AUTO 14010KT 2SM BKN008 BKN011 OVC022 M01/M01 A2960 RMK AO1 SLP052
SPECI CYNL 200327Z AUTO 14008KT 9SM SCT007 BKN009 BKN010 M01/M01 A2960 RMK AO1 SLP053
SPECI CYNL 200308Z AUTO 15008KT 3SM SCT007 BKN010 OVC016 M01/M01 A2960 RMK AO1 SLP055
SPECI CYNL 200306Z AUTO 14008KT 2SM SCT007 BKN010 OVC017 M01/M01 A2960 RMK AO1 SLP054
SPECI CYNL 200304Z AUTO 14008KT 2SM VV010 M01/M01 A2960 RMK AO1 SLP054
SPECI CYNL 200303Z AUTO 14007KT 1 1/2SM VV010 M01/M01 A2960 RMK AO1 SLP054
METAR CYNL 200300Z AUTO 15008KT 1 1/4SM VV010 M01/M01 A2960 RMK AO1 SLP054
SPECI CYNL 200259Z AUTO 15008KT 1 1/2SM VV010 M01/M01 A2960 RMK AO1 SLP054
SPECI CYNL 200258Z AUTO 15008KT 1 1/4SM VV010 M01/M01 A2960 RMK AO1 SLP054
SPECI CYNL 200253Z AUTO 15008KT 1 3/4SM SCT007 BKN010 BKN016 M01/M01 A2960 RMK AO1 SLP055
SPECI CYNL 200252Z AUTO 15008KT 3SM SCT007 BKN010 BKN016 M01/M01 A2960 RMK AO1 SLP055
SPECI CYNL 200251Z AUTO 15008KT 7SM SCT007 BKN009 BKN016 M01/M01 A2960 RMK AO1 SLP055
SPECI CYNL 200245Z AUTO 15009KT 9SM SCT007 BKN010 OVC020 M01/M01 A2960 RMK AO1 SLP055
SPECI CYNL 200225Z AUTO 15010KT 4SM BKN007 BKN010 OVC022 M01/M01 A2960 RMK AO1 SLP055
SPECI CYNL 200222Z AUTO 15008KT 2 1/2SM BKN007 OVC010 M01/M01 A2960 RMK AO1 SLP055
METAR CYNL 200200Z AUTO 14008KT 8SM BKN008 BKN011 OVC023 M01/M01 A2960 RMK AO1 SLP053
SPECI CYNL 200155Z AUTO 14008KT 7SM BKN008 BKN011 OVC023 M01/M01 A2960 RMK AO1 SLP054
SPECI CYNL 200131Z AUTO 15009G15KT 6SM SCT008 BKN010 OVC013 M01/M01 A2960 RMK AO1 SLP052
SPECI CYNL 200130Z AUTO 15010KT 9SM BKN008 OVC015 M01/M01 A2960 RMK AO1 SLP052
SPECI CYNL 200128Z AUTO 15010G16KT 9SM SCT008 BKN011 BKN015 M01/M01 A2960 RMK AO1 SLP053
SPECI CYNL 200126Z AUTO 15008G16KT 9SM BKN008 BKN015 OVC022 M01/M01 A2960 RMK AO1 SLP053
SPECI CYNL 200115Z AUTO 14010KT 4SM SCT008 BKN012 OVC022 M01/M01 A2959 RMK AO1 SLP052
METAR CYNL 200100Z AUTO 14011KT 3SM FEW007 OVC022 M01/M01 A2959 RMK AO1 SLP051
SPECI CYNL 200057Z AUTO 14011KT 2 1/2SM FEW009 OVC022 M01/M01 A2959 RMK AO1 SLP050
SPECI CYNL 200034Z AUTO 14011G16KT 9SM SCT014 OVC021 M01/M02 A2959 RMK AO1 SLP053
SPECI CYNL 200033Z AUTO 14010G15KT 9SM BKN014 OVC021 M01/M02 A2960 RMK AO1 SLP053
SPECI CYNL 200032Z AUTO 14009G15KT 9SM SCT014 BKN017 OVC021 M01/M02 A2960 RMK AO1 SLP053
SPECI CYNL 200021Z AUTO 14012KT 6SM FEW007 OVC013 M01/M01 A2960 RMK AO1 SLP053
SPECI CYNL 200020Z AUTO 14011KT 4SM FEW008 OVC015 M01/M01 A2960 RMK AO1 SLP053
SPECI CYNL 200015Z AUTO 14009G16KT 4SM VV014 M01/M01 A2960 RMK AO1 SLP053
SPECI CYNL 200005Z AUTO 14010G18KT 4SM VV015 M01/M01 A2959 RMK AO1 SLP052
SPECI CYNL 200004Z AUTO 14009G18KT 4SM VV013 M01/M01 A2959 RMK AO1 SLP052
SPECI CYNL 200001Z AUTO 13013KT 2 1/2SM VV011 M01/M01 A2959 RMK AO1 SLP051
METAR CYNL 200000Z AUTO 14013KT 5SM VV010 M01/M01 A2959 RMK AO1 SLP051
SPECI CYNL 192359Z AUTO 14013KT 3SM VV010 M01/M01 A2959 RMK AO1 SLP051
SPECI CYNL 192358Z AUTO 13012KT 2 1/2SM VV010 M01/M01 A2959 RMK AO1 SLP052
SPECI CYNL 192355Z AUTO 14009KT 1 1/2SM VV011 M01/M01 A2959 RMK AO1 SLP052
SPECI CYNL 192352Z AUTO 14009KT 3SM VV011 M01/M01 A2959 RMK AO1 SLP052
SPECI CYNL 192347Z AUTO 14008G16KT 2SM VV011 M01/M01 A2959 RMK AO1 SLP052
SPECI CYNL 192344Z AUTO 14008G16KT 1 1/2SM VV011 M01/M01 A2959 RMK AO1 SLP051
SPECI CYNL 192340Z AUTO 14009G18KT 2SM VV011 M01/M01 A2959 RMK AO1 SLP051
SPECI CYNL 192339Z AUTO 14010G18KT 1 1/2SM VV011 M01/M01 A2959 RMK AO1 SLP050
SPECI CYNL 192338Z AUTO 14010G18KT 1 1/4SM VV010 M01/M01 A2959 RMK AO1 SLP051
SPECI CYNL 192337Z AUTO 14009G18KT 3/4SM VV010 M01/M01 A2959 RMK AO1 SLP051
SPECI CYNL 192335Z AUTO 14012G18KT 5/8SM VV009 M01/M01 A2959 RMK AO1 SLP051
SPECI CYNL 192333Z AUTO 14010G18KT 3/4SM VV009 M01/M01 A2959 RMK AO1 SLP051
SPECI CYNL 192326Z AUTO 15011G18KT 5/8SM VV009 M01/M01 A2959 RMK AO1 SLP051
SPECI CYNL 192324Z AUTO 14010G18KT 3/4SM VV009 M00/M01 A2959 RMK AO1 SLP051
SPECI CYNL 192318Z AUTO 14013KT 1 1/4SM VV011 M00/M01 A2959 RMK AO1 SLP051
SPECI CYNL 192317Z AUTO 14013KT 1 1/2SM VV012 M00/M01 A2959 RMK AO1 SLP051
SPECI CYNL 192315Z AUTO 15011G18KT 2SM VV012 M00/M01 A2959 RMK AO1 SLP050
SPECI CYNL 192309Z AUTO 15010G18KT 1 3/4SM VV011 M00/M01 A2959 RMK AO1 SLP051
SPECI CYNL 192306Z AUTO 14012G19KT 2SM VV011 M00/M01 A2959 RMK AO1 SLP050
METAR CYNL 192300Z AUTO 14012G19KT 1 3/4SM VV011 M00/M01 A2959 RMK AO1 SLP050
SPECI CYNL 192257Z AUTO 15013G20KT 2 1/2SM VV010 M00/M01 A2958 RMK AO1 SLP049
SPECI CYNL 192256Z AUTO 15013G20KT 3SM VV010 M00/M01 A2958 RMK AO1 SLP049
SPECI CYNL 192253Z AUTO 14012G20KT 2SM FEW007 BKN010 OVC015 M00/M01 A2958 RMK AO1 SLP048
SPECI CYNL 192252Z AUTO 14012G20KT 2 1/2SM BKN010 OVC015 M00/M01 A2958 RMK AO1 SLP048
SPECI CYNL 192249Z AUTO 14015KT 9SM SCT010 BKN013 OVC016 M00/M01 A2958 RMK AO1 SLP047
SPECI CYNL 192248Z AUTO 14015G20KT 9SM FEW008 SCT011 OVC015 M00/M01 A2958 RMK AO1 SLP048
SPECI CYNL 192241Z AUTO 14014G21KT 4SM FEW007 BKN011 OVC014 M00/M01 A2958 RMK AO1 SLP048
SPECI CYNL 192239Z AUTO 14014G21KT 2SM VV012 M00/M01 A2958 RMK AO1 SLP047
SPECI CYNL 192236Z AUTO 14014G21KT 1 3/4SM VV012 M00/M01 A2958 RMK AO1 SLP046
SPECI CYNL 192232Z AUTO 13015G21KT 2SM VV011 M00/M01 A2957 RMK AO1 SLP046
SPECI CYNL 192227Z AUTO 13012G19KT 4SM FEW008 SCT009 OVC012 M00/M01 A2957 RMK AO1 SLP045
SPECI CYNL 192220Z AUTO 13011G18KT 3SM SCT008 BKN009 OVC011 M00/M01 A2957 RMK AO1 SLP046
SPECI CYNL 192217Z AUTO 12011G18KT 4SM FEW007 OVC010 M00/M01 A2957 RMK AO1 SLP046
SPECI CYNL 192214Z AUTO 12011G19KT 4SM FEW007 BKN009 BKN011 M00/M01 A2957 RMK AO1 SLP046
SPECI CYNL 192209Z AUTO 13013G19KT 4SM SCT009 BKN011 OVC015 M00/M01 A2957 RMK AO1 SLP045
SPECI CYNL 192206Z AUTO 13015KT 4SM VV010 M00/M01 A2957 RMK AO1 SLP045
SPECI CYNL 192201Z AUTO 13010G18KT 4SM VV009 M00/M01 A2957 RMK AO1 SLP045
METAR CYNL 192200Z AUTO 13010G18KT 2 1/2SM VV009 M00/M01 A2957 RMK AO1 SLP045
SPECI CYNL 192158Z AUTO 13008G18KT 2SM VV009 M00/M01 A2957 RMK AO1 SLP045
SPECI CYNL 192156Z AUTO 13012G19KT 3SM VV010 M00/M01 A2957 RMK AO1 SLP044
SPECI CYNL 192153Z AUTO 13014G19KT 2SM VV011 M00/M01 A2957 RMK AO1 SLP045
SPECI CYNL 192150Z AUTO 13012G20KT 1 3/4SM VV012 M00/M01 A2957 RMK AO1 SLP046
SPECI CYNL 192148Z AUTO 13011G20KT 2SM SCT010 BKN013 M00/M01 A2957 RMK AO1 SLP046
SPECI CYNL 192146Z AUTO 13015KT 1 3/4SM SCT010 BKN013 M00/M01 A2957 RMK AO1 SLP046
SPECI CYNL 192142Z AUTO 13012G20KT 9SM FEW008 SCT010 BKN014 M00/M01 A2958 RMK AO1 SLP047
SPECI CYNL 192141Z AUTO 13012G20KT 9SM SCT010 BKN014 BKN072 M00/M01 A2958 RMK AO1 SLP047
SPECI CYNL 192139Z AUTO 13012KT 9SM FEW008 SCT011 BKN015 M00/M01 A2958 RMK AO1 SLP047
SPECI CYNL 192135Z AUTO 14011G18KT 9SM FEW009 BKN011 M00/M01 A2957 RMK AO1 SLP046
SPECI CYNL 192134Z AUTO 14010G18KT 9SM BKN010 M00/M01 A2957 RMK AO1 SLP045
SPECI CYNL 192129Z AUTO 13013KT 5SM SCT009 BKN015 M00/M01 A2956 RMK AO1 SLP042
SPECI CYNL 192128Z AUTO 13014KT 6SM BKN009 M00/M01 A2956 RMK AO1 SLP041
SPECI CYNL 192127Z AUTO 12014KT 9SM FEW006 SCT009 BKN012 M00/M01 A2956 RMK AO1 SLP041
SPECI CYNL 192122Z AUTO 11013KT 4SM VV009 M00/M01 A2956 RMK AO1 SLP043
SPECI CYNL 192121Z AUTO 12012KT 3SM VV010 M00/M01 A2957 RMK AO1 SLP044
SPECI CYNL 192120Z AUTO 12013KT 2 1/2SM VV010 M00/M01 A2957 RMK AO1 SLP045
SPECI CYNL 192119Z AUTO 12011G16KT 1 3/4SM VV010 M00/M01 A2957 RMK AO1 SLP046
SPECI CYNL 192117Z AUTO 12011G16KT 1SM VV012 M00/M01 A2958 RMK AO1 SLP047
SPECI CYNL 192116Z AUTO 13010G16KT 1 1/4SM FEW006 BKN009 OVC013 M00/M01 A2958 RMK AO1 SLP048
SPECI CYNL 192113Z AUTO 13011G16KT 1 3/4SM BKN009 BKN012 OVC076 M00/M01 A2958 RMK AO1 SLP049
METAR CYNL 192100Z AUTO 12011G17KT 7SM VV008 M00/M01 A2958 RMK AO1 SLP049
SPECI CYNL 192058Z AUTO 13011KT 3SM VV009 M00/M01 A2958 RMK AO1 SLP048
SPECI CYNL 192057Z AUTO 12011KT 2SM VV010 M00/M01 A2958 RMK AO1 SLP048
SPECI CYNL 192056Z AUTO 12011KT 1 1/2SM VV010 M00/M01 A2958 RMK AO1 SLP049
SPECI CYNL 192053Z AUTO 12011KT 1SM VV010 M00/M01 A2959 RMK AO1 SLP050
SPECI CYNL 192051Z AUTO 13010KT 1 3/4SM VV010 M00/M01 A2959 RMK AO1 SLP051
SPECI CYNL 192050Z AUTO 13009KT 2SM VV009 M00/M01 A2959 RMK AO1 SLP051
SPECI CYNL 192049Z AUTO 13009KT 1 3/4SM VV009 M00/M01 A2959 RMK AO1 SLP051
SPECI CYNL 192040Z AUTO 13010G16KT 1SM VV009 M01/M01 A2959 RMK AO1 SLP052
SPECI CYNL 192038Z AUTO 13011KT 3/4SM VV009 M01/M01 A2959 RMK AO1 SLP052
SPECI CYNL 192032Z AUTO 14012KT 1 1/4SM VV010 M01/M01 A2959 RMK AO1 SLP053
SPECI CYNL 192022Z AUTO 14010G15KT 1 3/4SM VV010 M01/M01 A2960 RMK AO1 SLP052
SPECI CYNL 192021Z AUTO 14009KT 2SM VV010 M01/M01 A2960 RMK AO1 SLP052
SPECI CYNL 192020Z AUTO 14009KT 1 3/4SM VV010 M01/M01 A2960 RMK AO1 SLP052
SPECI CYNL 192015Z AUTO 14009KT 1 1/4SM VV010 M01/M01 A2960 RMK AO1 SLP053
SPECI CYNL 192014Z AUTO 14008KT 1 1/2SM VV011 M01/M01 A2960 RMK AO1 SLP053
SPECI CYNL 192013Z AUTO 14008KT 1 1/4SM VV011 M01/M01 A2960 RMK AO1 SLP053
SPECI CYNL 192012Z AUTO 14008KT 1 1/2SM SCT007 BKN011 BKN014 M01/M01 A2960 RMK AO1 SLP053
SPECI CYNL 192011Z AUTO 14009KT 2SM SCT007 BKN012 OVC190 M01/M01 A2960 RMK AO1 SLP053
METAR CYNL 192000Z AUTO 12008KT 3SM FEW008 OVC012 M01/M01 A2959 RMK AO1 SLP050
SPECI CYNL 191955Z AUTO 12010G16KT 4SM FEW008 BKN012 BKN016 M01/M02 A2958 RMK AO1 SLP049
SPECI CYNL 191940Z AUTO 12011G16KT 3SM VV011 M01/M02 A2958 RMK AO1 SLP048
SPECI CYNL 191935Z AUTO 12012KT 2 1/2SM BKN011 OVC016 M01/M02 A2958 RMK AO1 SLP049
METAR CYNL 191900Z AUTO 12010G18KT 9SM BKN010 OVC014 M01/M02 A2959 RMK AO1 SLP052
SPECI CYNL 191844Z AUTO 13014G21KT 7SM BKN010 OVC014 M01/M02 A2959 RMK AO1 SLP052
SPECI CYNL 191835Z AUTO 12016G21KT 9SM BKN009 OVC013 M01/M02 A2959 RMK AO1 SLP052
SPECI CYNL 191832Z AUTO 12013G18KT 9SM SCT009 OVC012 M01/M02 A2959 RMK AO1 SLP051
SPECI CYNL 191830Z AUTO 12012G18KT 5SM VV012 M01/M02 A2959 RMK AO1 SLP052
SPECI CYNL 191829Z AUTO 12013G18KT 2 1/2SM VV012 M01/M02 A2959 RMK AO1 SLP052
SPECI CYNL 191828Z AUTO 12012G18KT 1 1/2SM VV012 M01/M02 A2959 RMK AO1 SLP052
SPECI CYNL 191826Z AUTO 12014KT 1 1/4SM VV012 M01/M02 A2959 RMK AO1 SLP052
SPECI CYNL 191825Z AUTO 12014KT 1 3/4SM VV012 M01/M02 A2959 RMK AO1 SLP052
SPECI CYNL 191823Z AUTO 12014KT 1 3/4SM BKN008 BKN011 OVC013 M01/M02 A2959 RMK AO1 SLP052
SPECI CYNL 191822Z AUTO 12012G19KT 2 1/2SM BKN008 BKN011 OVC013 M01/M02 A2959 RMK AO1 SLP052
SPECI CYNL 191801Z AUTO 12013G20KT 9SM BKN009 OVC012 M01/M02 A2960 RMK AO1 SLP054
METAR CYNL 191800Z AUTO 12013G20KT 9SM OVC010 M01/M02 A2960 RMK AO1 SLP055
SPECI CYNL 191757Z AUTO 12013G20KT 4SM FEW007 OVC010 M01/M02 A2960 RMK AO1 SLP056
SPECI CYNL 191756Z AUTO 12012G20KT 3SM VV011 M01/M02 A2960 RMK AO1 SLP056
SPECI CYNL 191754Z AUTO 13015G20KT 2 1/2SM VV010 M01/M02 A2960 RMK AO1 SLP057
SPECI CYNL 191752Z AUTO 12010G18KT 3SM VV010 M02/M02 A2960 RMK AO1 SLP057
SPECI CYNL 191750Z AUTO 12010G17KT 2SM VV011 M02/M02 A2960 RMK AO1 SLP057
SPECI CYNL 191748Z AUTO 12009G17KT 1 3/4SM VV012 M02/M02 A2960 RMK AO1 SLP056
SPECI CYNL 191744Z AUTO 12012G17KT 2 1/2SM VV011 M02/M02 A2960 RMK AO1 SLP056
SPECI CYNL 191742Z AUTO 12012G17KT 3SM VV010 M02/M02 A2960 RMK AO1 SLP056
SPECI CYNL 191740Z AUTO 12011KT 2SM VV010 M02/M02 A2960 RMK AO1 SLP057
SPECI CYNL 191739Z AUTO 12010KT 1 1/2SM VV009 M02/M02 A2960 RMK AO1 SLP057
SPECI CYNL 191738Z AUTO 12010KT 1 1/4SM VV009 M02/M02 A2960 RMK AO1 SLP057
SPECI CYNL 191735Z AUTO 11009KT 1 1/2SM VV010 M02/M02 A2961 RMK AO1 SLP058
SPECI CYNL 191733Z AUTO 12010KT 1 1/4SM VV010 M02/M02 A2961 RMK AO1 SLP058
SPECI CYNL 191724Z AUTO 11010G17KT 1 1/2SM VV010 M02/M02 A2961 RMK AO1 SLP059
SPECI CYNL 191714Z AUTO 11012KT 1 1/4SM VV010 M02/M02 A2961 RMK AO1 SLP059
SPECI CYNL 191710Z AUTO 11010G15KT 1 1/4SM VV009 M02/M02 A2961 RMK AO1 SLP059
SPECI CYNL 191706Z AUTO 11012KT 1 1/4SM VV010 M02/M03 A2961 RMK AO1 SLP059
SPECI CYNL 191704Z AUTO 11009G16KT 1 3/4SM VV010 M02/M03 A2961 RMK AO1 SLP059
METAR CYNL 191700Z AUTO 11011G17KT 2 1/2SM VV011 M02/M03 A2961 RMK AO1 SLP059
SPECI CYNL 191658Z AUTO 11010G17KT 2 1/2SM VV011 M02/M03 A2961 RMK AO1 SLP058
SPECI CYNL 191652Z AUTO 11010KT 4SM FEW008 BKN011 OVC016 M02/M03 A2961 RMK AO1 PRESFR SLP058
SPECI CYNL 191640Z AUTO 11012KT 3SM VV012 M02/M03 A2961 RMK AO1 PRESFR SLP060
SPECI CYNL 191638Z AUTO 11013G19KT 2 1/2SM VV012 M02/M03 A2961 RMK AO1 PRESFR SLP059
SPECI CYNL 191632Z AUTO 11012G19KT 3SM VV011 M02/M03 A2960 RMK AO1 PRESFR SLP058
SPECI CYNL 191622Z AUTO 10013KT 2 1/2SM VV011 M02/M03 A2960 RMK AO1 PRESFR SLP057
SPECI CYNL 191621Z AUTO 10012KT 3SM VV011 M02/M03 A2960 RMK AO1 PRESFR SLP058
SPECI CYNL 191617Z AUTO 10012KT 2 1/2SM VV011 M02/M03 A2961 RMK AO1 PRESFR SLP059
SPECI CYNL 191614Z AUTO 11009G15KT 3SM VV011 M02/M03 A2961 RMK AO1 PRESFR SLP060
SPECI CYNL 191611Z AUTO 11009G15KT 2 1/2SM VV012 M02/M03 A2961 RMK AO1 PRESFR SLP060
SPECI CYNL 191601Z AUTO 11011KT 3SM VV012 M02/M03 A2961 RMK AO1 PRESFR SLP059
METAR CYNL 191600Z AUTO 11010KT 2SM VV012 M02/M03 A2961 RMK AO1 PRESFR SLP060
SPECI CYNL 191559Z AUTO 11009KT 1 1/2SM VV012 M02/M03 A2961 RMK AO1 PRESFR SLP060
SPECI CYNL 191558Z AUTO 11009KT 1 1/4SM VV012 M02/M03 A2961 RMK AO1 PRESFR SLP061
SPECI CYNL 191557Z AUTO 11010KT 1 3/4SM VV012 M02/M03 A2961 RMK AO1 SLP061
SPECI CYNL 191555Z AUTO 11011KT 2 1/2SM VV012 M02/M03 A2961 RMK AO1 SLP061
SPECI CYNL 191553Z AUTO 11010KT 1 1/2SM VV012 M02/M03 A2961 RMK AO1 SLP062
SPECI CYNL 191552Z AUTO 11011KT 1 1/4SM VV012 M02/M03 A2961 RMK AO1 SLP062
SPECI CYNL 191551Z AUTO 11010KT 1 3/4SM VV012 M02/M03 A2962 RMK AO1 SLP062
SPECI CYNL 191547Z AUTO 11009KT 2SM VV011 M02/M03 A2962 RMK AO1 SLP064
SPECI CYNL 191544Z AUTO 11010KT 1 3/4SM VV011 M02/M03 A2962 RMK AO1 SLP064
SPECI CYNL 191541Z AUTO 11010KT 3SM VV012 M02/M03 A2962 RMK AO1 SLP064
SPECI CYNL 191540Z AUTO 11010KT 2 1/2SM VV012 M02/M03 A2962 RMK AO1 SLP064
SPECI CYNL 191538Z AUTO 11010KT 1 1/2SM VV012 M02/M03 A2962 RMK AO1 SLP064
SPECI CYNL 191537Z AUTO 11010KT 1 1/4SM VV012 M02/M03 A2962 RMK AO1 SLP064
SPECI CYNL 191536Z AUTO 11009KT 1 1/2SM VV011 M02/M03 A2962 RMK AO1 SLP064
SPECI CYNL 191532Z AUTO 11009KT 2 1/2SM VV011 M02/M03 A2962 RMK AO1 SLP066
SPECI CYNL 191530Z AUTO 11009KT 3SM VV011 M02/M03 A2963 RMK AO1 SLP067
SPECI CYNL 191522Z AUTO 12009KT 2SM VV013 M02/M03 A2963 RMK AO1 SLP068
SPECI CYNL 191521Z AUTO 12009KT 1 3/4SM VV012 M02/M03 A2963 RMK AO1 SLP068
SPECI CYNL 191520Z AUTO 12008KT 2SM VV012 M02/M03 A2963 RMK AO1 SLP068
SPECI CYNL 191516Z AUTO 12009KT 1 1/2SM VV011 M03/M03 A2963 RMK AO1 SLP068
SPECI CYNL 191515Z AUTO 12008KT 1 1/4SM VV012 M03/M03 A2963 RMK AO1 SLP068
SPECI CYNL 191513Z AUTO 12009KT 1 3/4SM VV012 M03/M03 A2963 RMK AO1 SLP069
SPECI CYNL 191512Z AUTO 12010KT 2SM VV013 M03/M03 A2963 RMK AO1 SLP069
SPECI CYNL 191508Z AUTO 12009KT 1 3/4SM VV013 M03/M03 A2964 RMK AO1 SLP071
METAR CYNL 191500Z AUTO 12008KT 2 1/2SM VV012 M03/M03 A2964 RMK AO1 SLP071
SPECI CYNL 191456Z AUTO 12008KT 2SM VV011 M03/M03 A2964 RMK AO1 SLP071
SPECI CYNL 191451Z AUTO 12009G15KT 1 3/4SM VV010 M03/M04 A2964 RMK AO1 SLP070
SPECI CYNL 191449Z AUTO 12007G15KT 1 3/4SM FEW007 OVC009 M03/M04 A2964 RMK AO1 SLP071
SPECI CYNL 191440Z AUTO 11008KT 2SM SCT007 OVC009 M03/M04 A2964 RMK AO1 SLP072
SPECI CYNL 191435Z AUTO 11009KT 1 1/2SM VV009 M03/M04 A2964 RMK AO1 SLP072
SPECI CYNL 191433Z AUTO 12009KT 1 1/2SM VV010 M03/M04 A2964 RMK AO1 SLP073
SPECI CYNL 191432Z AUTO 12010KT 1 1/4SM SCT007 OVC010 M03/M04 A2965 RMK AO1 SLP073
SPECI CYNL 191431Z AUTO 12010KT 1 1/2SM SCT007 OVC010 M03/M04 A2965 RMK AO1 SLP073
SPECI CYNL 191430Z AUTO 12009KT 2SM SCT006 OVC010 M03/M04 A2965 RMK AO1 SLP073
SPECI CYNL 191429Z AUTO 12009KT 3SM SCT006 OVC010 M03/M04 A2965 RMK AO1 SLP073
METAR CYNL 191400Z AUTO 12010G17KT 9SM OVC006 M03/M04 A2965 RMK AO1 SLP076
SPECI CYNL 191342Z AUTO 12013KT 4SM SCT004 OVC006 M03/M04 A2965 RMK AO1 SLP075
SPECI CYNL 191338Z AUTO 12011G16KT 3SM BKN004 OVC006 M03/M04 A2965 RMK AO1 SLP076
SPECI CYNL 191327Z AUTO 11011G16KT 2 1/2SM OVC004 M03/M04 A2964 RMK AO1 SLP072
SPECI CYNL 191320Z AUTO 12012G18KT 3SM OVC004 M03/M04 A2965 RMK AO1 SLP074
SPECI CYNL 191312Z AUTO 12012G18KT 2 1/2SM OVC004 M03/M04 A2964 RMK AO1 SLP072
SPECI CYNL 191310Z AUTO 11011G17KT 3SM OVC004 M03/M04 A2965 RMK AO1 SLP073
SPECI CYNL 191307Z AUTO 11011G17KT 2 1/2SM OVC004 M03/M04 A2965 RMK AO1 SLP074
SPECI CYNL 191306Z AUTO 12010G17KT 3SM OVC004 M03/M04 A2965 RMK AO1 SLP074
SPECI CYNL 191303Z AUTO 11012G17KT 2 1/2SM OVC005 M03/M04 A2964 RMK AO1 SLP073
METAR CYNL 191300Z AUTO 11011G16KT 4SM OVC005 M03/M04 A2965 RMK AO1 SLP073
METAR CYNL 191200Z AUTO 10010KT 9SM OVC006 M03/M04 A2964 RMK AO1 PRESFR SLP072
SPECI CYNL 191102Z AUTO 11008KT 9SM BKN009 BKN016 M04/M05 A2967 RMK AO1 SLP082
SPECI CYNL 191101Z AUTO 12009KT 9SM BKN010 M04/M05 A2967 RMK AO1 SLP082
METAR CYNL 191100Z AUTO 12009KT 9SM BKN009 M04/M05 A2967 RMK AO1 SLP083
SPECI CYNL 191059Z AUTO 12009KT 9SM BKN009 M04/M05 A2968 RMK AO1 SLP083
SPECI CYNL 191054Z AUTO 12008KT 9SM SCT009 BKN012 M04/M05 A2968 RMK AO1 SLP083
SPECI CYNL 191045Z AUTO 12008KT 9SM BKN009 M04/M05 A2968 RMK AO1 SLP083
SPECI CYNL 191032Z AUTO 12009KT 9SM BKN010 M04/M05 A2967 RMK AO1 SLP081
SPECI CYNL 191003Z AUTO 12008KT 9SM FEW009 SCT020 M04/M05 A2967 RMK AO1 SLP082
SPECI CYNL 191002Z AUTO 11008KT 9SM FEW009 BKN020 M04/M05 A2967 RMK AO1 SLP081
SPECI CYNL 191001Z AUTO 11007KT 9SM FEW009 SCT020 M04/M05 A2967 RMK AO1 SLP081
METAR CYNL 191000Z AUTO 11007KT 9SM FEW009 BKN020 M04/M05 A2967 RMK AO1 SLP081
SPECI CYNL 190943Z AUTO 13010G16KT 9SM SCT009 BKN015 OVC020 M03/M05 A2968 RMK AO1 SLP084
SPECI CYNL 190941Z AUTO 12011KT 9SM SCT009 BKN012 OVC020 M03/M05 A2968 RMK AO1 SLP084
SPECI CYNL 190935Z AUTO 13009G16KT 9SM BKN010 OVC021 M03/M04 A2968 RMK AO1 SLP085
SPECI CYNL 190928Z AUTO 12009G16KT 9SM BKN009 OVC012 M03/M04 A2967 RMK AO1 SLP081
SPECI CYNL 190926Z AUTO 12011G16KT 9SM SCT009 BKN013 OVC015 M03/M04 A2967 RMK AO1 SLP081
METAR CYNL 190900Z AUTO 12008KT 9SM BKN012 OVC015 M03/M04 A2968 RMK AO1 SLP084
METAR CYNL 190800Z AUTO 12005KT 9SM OVC011 M03/M04 A2970 RMK AO1 SLP088
METAR CYNL 190700Z AUTO 08004KT 9SM OVC013 M03/M04 A2969 RMK AO1 SLP086
SPECI CYNL 190615Z AUTO 06005KT 9SM OVC014 M04/M04 A2968 RMK AO1 PRESRR SLP085
METAR CYNL 190600Z AUTO 05005KT 9SM SCT011 OVC015 M04/M05 A2969 RMK AO1 PRESRR SLP086
SPECI CYNL 190553Z AUTO 04004KT 9SM SCT012 OVC015 M04/M05 A2969 RMK AO1 SLP088
SPECI CYNL 190509Z AUTO 04006KT 9SM OVC014 M04/M05 A2966 RMK AO1 SLP078
METAR CYNL 190500Z AUTO 04006KT 9SM OVC015 M04/M05 A2966 RMK AO1 SLP077
METAR CYNL 190400Z AUTO 04007KT 9SM OVC015 M04/M05 A2965 RMK AO1 SLP074
SPECI CYNL 190316Z AUTO 00003KT 9SM BKN016 M04/M05 A2968 RMK AO1 PRESRR SLP085
SPECI CYNL 190303Z AUTO 02006KT 9SM SCT015 M04/M05 A2966 RMK AO1 PRESRR SLP079
METAR CYNL 190300Z AUTO 03005KT 9SM BKN015 M04/M05 A2966 RMK AO1 PRESRR SLP078
SPECI CYNL 190210Z AUTO 03008KT 9SM SCT014 BKN019 M03/M04 A2963 RMK AO1 SLP066
METAR CYNL 190200Z AUTO 03010KT 9SM SCT015 BKN034 M03/M04 A2962 RMK AO1 SLP064
SPECI CYNL 190152Z AUTO 02008KT 9SM SCT017 BKN034 M03/M04 A2963 RMK AO1 PRESRR SLP066
SPECI CYNL 190151Z AUTO 02008KT 9SM BKN017 M03/M04 A2963 RMK AO1 PRESRR SLP066
SPECI CYNL 190147Z AUTO 02010KT 9SM SCT015 BKN034 M03/M04 A2963 RMK AO1 PRESRR SLP066
SPECI CYNL 190125Z AUTO 01009KT 9SM BKN015 M03/M04 A2963 RMK AO1 PRESRR SLP068
SPECI CYNL 190122Z AUTO 00008KT 9SM BKN013 OVC017 M03/M04 A2963 RMK AO1 PRESRR SLP068
SPECI CYNL 190121Z AUTO 01007KT 9SM OVC015 M03/M04 A2963 RMK AO1 PRESRR SLP068
SPECI CYNL 190119Z AUTO 01009KT 9SM BKN014 OVC018 M03/M04 A2963 RMK AO1 PRESRR SLP068
METAR CYNL 190100Z AUTO 00011KT 9SM FEW011 BKN016 M03/M04 A2962 RMK AO1 PRESRR SLP065
SPECI CYNL 190024Z AUTO 00010KT 9SM BKN015 OVC019 M03/M04 A2960 RMK AO1 PRESRR SLP058
METAR CYNL 190000Z AUTO 35009KT 9SM BKN013 BKN017 M02/M04 A2958 RMK AO1 PRESRR SLP050
SPECI CYNL 182346Z AUTO 00009KT 9SM BKN013 M02/M03 A2957 RMK AO1 PRESRR SLP044
SPECI CYNL 182342Z AUTO 00010G15KT 9SM SCT013 BKN017 M02/M03 A2956 RMK AO1 PRESRR SLP042
SPECI CYNL 182329Z AUTO 01011G16KT 9SM BKN014 M02/M03 A2955 RMK AO1 PRESRR SLP038
SPECI CYNL 182328Z AUTO 01009G16KT 9SM SCT012 BKN016 BKN019 M02/M03 A2955 RMK AO1 PRESRR SLP038
SPECI CYNL 182327Z AUTO 01009G16KT 9SM BKN014 M02/M03 A2955 RMK AO1 PRESRR SLP038
SPECI CYNL 182323Z AUTO 00011G16KT 8SM SCT012 BKN016 M02/M03 A2954 RMK AO1 PRESRR SLP036
SPECI CYNL 182318Z AUTO 00011KT 9SM BKN012 M02/M03 A2954 RMK AO1 PRESRR SLP035
SPECI CYNL 182316Z AUTO 01010G17KT 9SM SCT012 BKN016 M02/M03 A2954 RMK AO1 PRESRR SLP034
SPECI CYNL 182314Z AUTO 00010G17KT 9SM BKN012 M02/M03 A2954 RMK AO1 PRESRR SLP034
SPECI CYNL 182308Z AUTO 01012G17KT 9SM SCT012 BKN016 M02/M03 A2953 RMK AO1 PRESRR SLP032
METAR CYNL 182300Z AUTO 01011G17KT 8SM BKN011 M02/M03 A2953 RMK AO1 PRESRR SLP030
SPECI CYNL 182223Z AUTO 00010G22KT 8SM BKN012 M02/M03 A2950 RMK AO1 PRESRR SLP021
SPECI CYNL 182222Z AUTO 00011G22KT 8SM SCT012 BKN019 M02/M03 A2950 RMK AO1 PRESRR SLP021
SPECI CYNL 182220Z AUTO 01011G24KT 8SM SCT013 M02/M03 A2950 RMK AO1 PRESRR SLP020
SPECI CYNL 182219Z AUTO 01012G24KT 8SM SCT013 BKN019 M02/M03 A2950 RMK AO1 PRESRR SLP020
SPECI CYNL 182216Z AUTO 00013G24KT 6SM BKN013 M02/M03 A2950 RMK AO1 PRESRR SLP019
SPECI CYNL 182208Z AUTO 00015G20KT 7SM FEW008 SCT011 BKN017 M02/M03 A2950 RMK AO1 PRESRR SLP019
METAR CYNL 182200Z AUTO 00014G21KT 5SM FEW009 BKN012 M02/M03 A2949 RMK AO1 PRESRR SLP017
SPECI CYNL 182154Z AUTO 00014G21KT 4SM FEW008 BKN012 M02/M03 A2949 RMK AO1 PRESRR SLP016
SPECI CYNL 182143Z AUTO 00015G22KT 3SM VV011 M02/M03 A2948 RMK AO1 PRESRR SLP013
SPECI CYNL 182137Z AUTO 00014G21KT 2 1/2SM VV012 M02/M03 A2947 RMK AO1 PRESRR SLP011
SPECI CYNL 182134Z AUTO 00013G21KT 3SM VV013 M02/M03 A2947 RMK AO1 PRESRR SLP010
SPECI CYNL 182125Z AUTO 00013G23KT 2SM VV014 M02/M03 A2947 RMK AO1 PRESRR SLP008
SPECI CYNL 182122Z AUTO 35013G23KT 2SM VV015 M02/M03 A2946 RMK AO1 PRESRR SLP007
SPECI CYNL 182118Z AUTO 35015G23KT 2SM VV014 M02/M03 A2946 RMK AO1 PRESRR SLP007
SPECI CYNL 182105Z AUTO 35014G20KT 1 1/2SM VV013 M02/M02 A2945 RMK AO1 PRESRR SLP003
METAR CYNL 182100Z AUTO 00014G20KT 1 1/4SM VV012 M02/M02 A2944 RMK AO1 PRESRR SLP000
SPECI CYNL 182032Z AUTO 35012G23KT 1SM VV010 M02/M02 A2941 RMK AO1 PRESRR SLP988
SPECI CYNL 182029Z AUTO 35016G23KT 1SM VV009 M02/M02 A2941 RMK AO1 PRESRR SLP987
SPECI CYNL 182028Z AUTO 35015G22KT 1SM VV010 M02/M02 A2941 RMK AO1 PRESRR SLP987
SPECI CYNL 182026Z AUTO 35014G22KT 1SM VV009 M02/M02 A2941 RMK AO1 PRESRR SLP987
SPECI CYNL 182025Z AUTO 35015G22KT 1SM VV010 M02/M02 A2940 RMK AO1 PRESRR SLP986
SPECI CYNL 182024Z AUTO 35014G22KT 1SM VV009 M02/M02 A2940 RMK AO1 PRESRR SLP986
SPECI CYNL 182006Z AUTO 35011G23KT 1SM VV010 M02/M02 A2938 RMK AO1 PRESRR SLP978
METAR CYNL 182000Z AUTO 35015G23KT 1SM VV009 M02/M02 A2938 RMK AO1 PRESRR SLP976
SPECI CYNL 181951Z AUTO 35012G24KT 1SM VV009 M02/M02 A2937 RMK AO1 PRESRR SLP971
SPECI CYNL 181939Z AUTO 34012G21KT 1 1/4SM VV010 M02/M02 A2936 RMK AO1 PRESRR SLP968
SPECI CYNL 181938Z AUTO 33011G21KT 1 1/2SM VV010 M02/M02 A2936 RMK AO1 PRESRR SLP968
SPECI CYNL 181937Z AUTO 33011G23KT 1 1/4SM VV010 M02/M02 A2936 RMK AO1 PRESRR SLP968
SPECI CYNL 181935Z AUTO 34012G23KT 1 1/4SM VV009 M02/M02 A2935 RMK AO1 PRESRR SLP967
SPECI CYNL 181934Z AUTO 34015G23KT 1 1/2SM VV009 M02/M02 A2935 RMK AO1 PRESRR SLP967
SPECI CYNL 181932Z AUTO 34013G23KT 1 1/2SM VV010 M02/M02 A2935 RMK AO1 PRESRR SLP966
SPECI CYNL 181931Z AUTO 34014G23KT 1 1/4SM VV010 M02/M02 A2935 RMK AO1 PRESRR SLP965
SPECI CYNL 181928Z AUTO 34015G23KT 1 1/2SM VV011 M02/M02 A2934 RMK AO1 PRESRR SLP964
SPECI CYNL 181914Z AUTO 34016G22KT 1 1/4SM VV011 M02/M03 A2933 RMK AO1 PRESRR SLP960
SPECI CYNL 181913Z AUTO 34015G22KT 1 1/2SM VV011 M02/M03 A2933 RMK AO1 PRESRR SLP960
SPECI CYNL 181911Z AUTO 34014G22KT 1 1/4SM VV011 M02/M03 A2933 RMK AO1 PRESRR SLP959
SPECI CYNL 181904Z AUTO 34012G22KT 1 3/4SM VV011 M02/M03 A2932 RMK AO1 PRESRR SLP958
METAR CYNL 181900Z AUTO 34014G21KT 2SM VV011 M02/M03 A2932 RMK AO1 PRESRR SLP956
SPECI CYNL 181859Z AUTO 34015G21KT 2SM VV010 M02/M03 A2932 RMK AO1 PRESRR SLP956
SPECI CYNL 181857Z AUTO 34013G21KT 1 3/4SM VV011 M02/M03 A2932 RMK AO1 PRESRR SLP955
SPECI CYNL 181854Z AUTO 34013G21KT 2SM VV010 M02/M03 A2931 RMK AO1 PRESRR SLP954
SPECI CYNL 181849Z AUTO 34015G21KT 1 3/4SM VV010 M02/M03 A2931 RMK AO1 PRESRR SLP952
SPECI CYNL 181848Z AUTO 34014G21KT 2SM VV010 M02/M03 A2931 RMK AO1 PRESRR SLP951
SPECI CYNL 181844Z AUTO 34015G21KT 1 1/2SM VV011 M02/M03 A2930 RMK AO1 PRESRR SLP951
SPECI CYNL 181823Z AUTO 34013G21KT 1SM VV011 M02/M03 A2928 RMK AO1 PRESRR SLP945
SPECI CYNL 181820Z AUTO 34015G21KT 3/4SM VV011 M02/M03 A2929 RMK AO1 PRESRR SLP944
SPECI CYNL 181819Z AUTO 34013G21KT 1SM VV011 M02/M03 A2929 RMK AO1 PRESRR SLP944
SPECI CYNL 181815Z AUTO 34014G22KT 3/4SM VV011 M02/M03 A2928 RMK AO1 PRESRR SLP943
METAR CYNL 181800Z AUTO 34013G19KT 1SM VV010 M02/M03 A2927 RMK AO1 PRESRR SLP937
SPECI CYNL 181759Z AUTO 34012G19KT 1SM VV010 M02/M03 A2926 RMK AO1 PRESRR SLP937
SPECI CYNL 181757Z AUTO 34013G22KT 3/4SM VV009 M02/M03 A2926 RMK AO1 PRESRR SLP937
SPECI CYNL 181750Z AUTO 34013G22KT 3/4SM VV010 M02/M03 A2926 RMK AO1 PRESRR SLP935
SPECI CYNL 181749Z AUTO 35014G22KT 5/8SM VV010 M02/M03 A2926 RMK AO1 PRESRR SLP934
SPECI CYNL 181748Z AUTO 35015G22KT 3/4SM VV010 M02/M03 A2926 RMK AO1 PRESRR SLP934
SPECI CYNL 181747Z AUTO 34015G22KT 5/8SM VV010 M02/M03 A2926 RMK AO1 PRESRR SLP934
SPECI CYNL 181744Z AUTO 34013G20KT 3/4SM VV010 M02/M03 A2925 RMK AO1 PRESRR SLP933
SPECI CYNL 181743Z AUTO 35013G20KT 5/8SM VV010 M02/M03 A2925 RMK AO1 PRESRR SLP933
SPECI CYNL 181739Z AUTO 35014G21KT 3/4SM VV010 M02/M03 A2925 RMK AO1 PRESRR SLP932
SPECI CYNL 181732Z AUTO 34014G21KT 1SM VV010 M02/M03 A2924 RMK AO1 PRESRR SLP930
SPECI CYNL 181729Z AUTO 35014G20KT 3/4SM VV010 M02/M03 A2924 RMK AO1 PRESRR SLP929
SPECI CYNL 181722Z AUTO 35014G20KT 3/4SM VV009 M02/M03 A2923 RMK AO1 PRESRR SLP926
SPECI CYNL 181720Z AUTO 35011G20KT 1SM VV009 M02/M03 A2923 RMK AO1 PRESRR SLP926
SPECI CYNL 181713Z AUTO 34013G19KT 3/4SM VV009 M02/M03 A2922 RMK AO1 PRESRR SLP923
SPECI CYNL 181709Z AUTO 35012G19KT 1SM VV009 M02/M03 A2922 RMK AO1 PRESRR SLP922
SPECI CYNL 181708Z AUTO 35013G19KT 3/4SM VV009 M02/M03 A2922 RMK AO1 PRESRR SLP921
METAR CYNL 181700Z AUTO 00014G22KT 1SM VV009 M03/M03 A2921 RMK AO1 PRESRR SLP919
SPECI CYNL 181657Z AUTO 35011G22KT 1SM VV009 M03/M03 A2921 RMK AO1 PRESRR SLP918
METAR CYNL 181600Z AUTO 00011G19KT 1SM VV010 M03/M04 A2916 RMK AO1 PRESRR SLP901
SPECI CYNL 181558Z AUTO 00012G19KT 1SM VV010 M03/M04 A2915 RMK AO1 PRESRR SLP900
SPECI CYNL 181556Z AUTO 00014KT 3/4SM VV010 M03/M04 A2915 RMK AO1 PRESRR SLP899
SPECI CYNL 181553Z AUTO 00012G19KT 3/4SM VV009 M03/M04 A2915 RMK AO1 PRESRR SLP899
SPECI CYNL 181552Z AUTO 00012G19KT 5/8SM VV008 M03/M04 A2915 RMK AO1 PRESRR SLP898
SPECI CYNL 181548Z AUTO 35011KT 3/4SM VV008 M03/M04 A2915 RMK AO1 PRESRR SLP898
SPECI CYNL 181514Z AUTO 00012G20KT 1/2SM VV009 M03/M04 A2912 RMK AO1 PRESRR SLP890
SPECI CYNL 181513Z AUTO 35012G20KT 5/8SM VV010 M03/M04 A2912 RMK AO1 PRESRR SLP890
SPECI CYNL 181507Z AUTO 35013G19KT 3/4SM VV010 M03/M04 A2912 RMK AO1 PRESRR SLP889
SPECI CYNL 181505Z AUTO 35014G19KT 1SM VV010 M03/M04 A2912 RMK AO1 PRESRR SLP889
SPECI CYNL 181504Z AUTO 00012G19KT 1SM VV009 M03/M04 A2912 RMK AO1 PRESRR SLP889
METAR CYNL 181500Z AUTO 00012G19KT 1SM VV010 M03/M04 A2912 RMK AO1 PRESRR SLP888
SPECI CYNL 181459Z AUTO 00013G19KT 1SM VV010 M03/M04 A2912 RMK AO1 PRESRR SLP888
SPECI CYNL 181449Z AUTO 35011G18KT 1SM VV008 M03/M04 A2911 RMK AO1 PRESRR SLP886
SPECI CYNL 181446Z AUTO 35012KT 3/4SM VV008 M03/M04 A2911 RMK AO1 PRESRR SLP886
SPECI CYNL 181403Z AUTO 35012G17KT 5/8SM VV009 M03/M04 A2910 RMK AO1 PRESRR SLP881
METAR CYNL 181400Z AUTO 35010G17KT 3/4SM VV009 M03/M04 A2910 RMK AO1 PRESRR SLP880
SPECI CYNL 181357Z AUTO 00010G18KT 3/4SM VV009 M03/M04 A2909 RMK AO1 SLP880
SPECI CYNL 181355Z AUTO 00011G18KT 1SM VV009 M03/M04 A2909 RMK AO1 SLP880
SPECI CYNL 181345Z AUTO 35011G20KT 1 1/4SM VV011 M03/M04 A2909 RMK AO1 SLP877
SPECI CYNL 181342Z AUTO 35010G20KT 1 1/2SM VV010 M03/M04 A2909 RMK AO1 SLP877
SPECI CYNL 181337Z AUTO 00013KT 1 1/4SM VV010 M03/M04 A2908 RMK AO1 SLP876
SPECI CYNL 181334Z AUTO 01010G19KT 1 1/2SM VV010 M03/M04 A2908 RMK AO1 SLP876
SPECI CYNL 181333Z AUTO 00012G19KT 1 1/2SM VV009 M03/M04 A2908 RMK AO1 SLP876
SPECI CYNL 181332Z AUTO 00012G19KT 1 1/2SM VV010 M03/M04 A2908 RMK AO1 SLP876
SPECI CYNL 181329Z AUTO 00010G19KT 1 1/2SM VV009 M03/M04 A2908 RMK AO1 SLP875
SPECI CYNL 181321Z AUTO 01012G19KT 1SM VV008 M03/M04 A2908 RMK AO1 SLP874
SPECI CYNL 181320Z AUTO 01013KT 3/4SM VV008 M03/M04 A2908 RMK AO1 SLP874
SPECI CYNL 181314Z AUTO 01010G18KT 1SM VV008 M03/M04 A2908 RMK AO1 SLP873
SPECI CYNL 181313Z AUTO 01012G18KT 3/4SM VV008 M03/M04 A2908 RMK AO1 SLP873
METAR CYNL 181300Z AUTO 00009G18KT 1SM VV008 M03/M04 A2907 RMK AO1 SLP872
SPECI CYNL 181250Z AUTO 01011KT 1SM VV008 M03/M04 A2907 RMK AO1 SLP870
SPECI CYNL 181242Z AUTO 01011G17KT 3/4SM VV007 M03/M04 A2907 RMK AO1 SLP870
SPECI CYNL 181241Z AUTO 02010G17KT 5/8SM VV007 M03/M04 A2907 RMK AO1 SLP870
SPECI CYNL 181239Z AUTO 02011G17KT 3/4SM VV007 M03/M04 A2907 RMK AO1 SLP869
SPECI CYNL 181236Z AUTO 02012G17KT 5/8SM VV007 M03/M04 A2906 RMK AO1 SLP869
SPECI CYNL 181235Z AUTO 02012KT 3/4SM VV007 M03/M04 A2906 RMK AO1 SLP869
SPECI CYNL 181234Z AUTO 01012KT 5/8SM VV007 M03/M04 A2906 RMK AO1 SLP869
SPECI CYNL 181222Z AUTO 01011G17KT 3/4SM VV007 M03/M03 A2906 RMK AO1 SLP867
SPECI CYNL 181219Z AUTO 01010G17KT 5/8SM VV007 M03/M03 A2906 RMK AO1 SLP867
SPECI CYNL 181216Z AUTO 01010G17KT 3/4SM VV007 M03/M03 A2906 RMK AO1 SLP866
METAR CYNL 181200Z AUTO 01011G17KT 1/2SM VV007 M03/M03 A2905 RMK AO1 SLP865
METAR CYNL 181100Z AUTO 02013KT 3/8SM VV006 M02/M02 A2904 RMK AO1 SLP858
SPECI CYNL 181042Z AUTO 02011G17KT 5/8SM VV008 M02/M02 A2903 RMK AO1 SLP856
SPECI CYNL 181036Z AUTO 02012KT 3/4SM VV008 M02/M02 A2903 RMK AO1 SLP855
SPECI CYNL 181014Z AUTO 03012G18KT 1SM VV008 M02/M02 A2902 RMK AO1 SLP852
SPECI CYNL 181002Z AUTO 03013KT 3/4SM VV007 M02/M02 A2902 RMK AO1 SLP852
METAR CYNL 181000Z AUTO 03011KT 5/8SM VV007 M02/M02 A2902 RMK AO1 SLP852
SPECI CYNL 180946Z AUTO 03012G18KT 5/8SM VV008 M01/M01 A2902 RMK AO1 SLP851
SPECI CYNL 180944Z AUTO 03009G20KT 3/4SM VV008 M01/M01 A2902 RMK AO1 SLP851
SPECI CYNL 180934Z AUTO 04015G20KT 5/8SM VV008 M01/M01 A2902 RMK AO1 SLP851
SPECI CYNL 180905Z AUTO 04010G20KT 3/4SM VV008 M01/M01 A2902 RMK AO1 SLP851
METAR CYNL 180900Z AUTO 04013G20KT 1/2SM VV008 M01/M01 A2903 RMK AO1 SLP852
SPECI CYNL 180844Z AUTO 04010G18KT 5/8SM VV008 M00/M00 A2903 RMK AO1 PRESFR SLP852
SPECI CYNL 180841Z AUTO 05013KT 3/4SM VV009 M00/M00 A2903 RMK AO1 PRESFR SLP852
SPECI CYNL 180839Z AUTO 04013KT 5/8SM VV009 M00/M00 A2903 RMK AO1 PRESFR SLP852
SPECI CYNL 180836Z AUTO 05011KT 3/4SM VV008 M00/M00 A2903 RMK AO1 PRESFR SLP853
SPECI CYNL 180835Z AUTO 05011KT 5/8SM VV008 M00/M00 A2903 RMK AO1 PRESFR SLP853
SPECI CYNL 180834Z AUTO 04013KT 3/4SM VV008 M00/M00 A2903 RMK AO1 PRESFR SLP853
SPECI CYNL 180833Z AUTO 04012G19KT 5/8SM VV008 M00/M00 A2903 RMK AO1 PRESFR SLP853
SPECI CYNL 180829Z AUTO 05011G19KT 3/4SM VV008 M00/M00 A2903 RMK AO1 PRESFR SLP854
SPECI CYNL 180815Z AUTO 05012KT 5/8SM VV007 00/00 A2904 RMK AO1 PRESFR SLP855
SPECI CYNL 180809Z AUTO 05010G17KT 3/4SM VV008 00/00 A2904 RMK AO1 PRESFR SLP855
SPECI CYNL 180805Z AUTO 05013G18KT 5/8SM VV008 00/00 A2904 RMK AO1 PRESFR SLP856
METAR CYNL 180800Z AUTO 05012G18KT 3/4SM VV008 00/00 A2904 RMK AO1 PRESFR SLP857
SPECI CYNL 180758Z AUTO 05013G18KT 3/4SM VV008 00/00 A2904 RMK AO1 PRESFR SLP856
SPECI CYNL 180757Z AUTO 05014KT 5/8SM VV009 00/00 A2904 RMK AO1 PRESFR SLP856
SPECI CYNL 180756Z AUTO 05013G18KT 3/4SM VV009 00/00 A2904 RMK AO1 PRESFR SLP857
SPECI CYNL 180748Z AUTO 05012KT 5/8SM VV008 00/00 A2905 RMK AO1 PRESFR SLP858
SPECI CYNL 180727Z AUTO 05012G17KT 3/4SM VV009 00/00 A2905 RMK AO1 PRESFR SLP861
SPECI CYNL 180725Z AUTO 06011G17KT 1SM VV009 00/00 A2905 RMK AO1 PRESFR SLP861
SPECI CYNL 180720Z AUTO 05013KT 3/4SM VV009 00/00 A2906 RMK AO1 PRESFR SLP862
SPECI CYNL 180711Z AUTO 06013KT 1SM VV009 00/00 A2906 RMK AO1 PRESFR SLP863
SPECI CYNL 180704Z AUTO 05012G18KT 1SM VV010 00/00 A2906 RMK AO1 PRESFR SLP863
METAR CYNL 180700Z AUTO 06012G18KT 1SM VV009 00/00 A2906 RMK AO1 PRESFR SLP864
SPECI CYNL 180646Z AUTO 05010G16KT 1SM VV008 00/00 A2907 RMK AO1 PRESFR SLP867
SPECI CYNL 180644Z AUTO 05012KT 3/4SM VV008 00/00 A2907 RMK AO1 PRESFR SLP867
SPECI CYNL 180640Z AUTO 06011G18KT 5/8SM VV008 00/00 A2907 RMK AO1 PRESFR SLP868
SPECI CYNL 180636Z AUTO 05012G18KT 3/4SM VV009 00/00 A2908 RMK AO1 PRESFR SLP869
SPECI CYNL 180622Z AUTO 06011G17KT 1SM VV008 00/00 A2908 RMK AO1 PRESFR SLP871
SPECI CYNL 180603Z AUTO 06012KT 3/4SM VV007 00/00 A2909 RMK AO1 PRESFR SLP874
METAR CYNL 180600Z AUTO 06012G18KT 5/8SM VV007 00/00 A2909 RMK AO1 PRESFR SLP875
SPECI CYNL 180526Z AUTO 06012KT 5/8SM VV008 00/00 A2912 RMK AO1 PRESFR SLP884
SPECI CYNL 180519Z AUTO 06010G16KT 3/4SM VV007 00/00 A2913 RMK AO1 PRESFR SLP886
METAR CYNL 180500Z AUTO 07010G15KT 5/8SM VV007 00/00 A2914 RMK AO1 PRESFR SLP890
SPECI CYNL 180451Z AUTO 07011G19KT 5/8SM VV007 00/00 A2914 RMK AO1 PRESFR SLP891
SPECI CYNL 180439Z AUTO 07010G17KT 3/4SM VV007 00/00 A2915 RMK AO1 PRESFR SLP893
SPECI CYNL 180433Z AUTO 07010G16KT 5/8SM VV007 00/00 A2915 RMK AO1 PRESFR SLP895
SPECI CYNL 180409Z AUTO 08010G17KT 3/4SM VV007 00/00 A2916 RMK AO1 PRESFR SLP899
METAR CYNL 180400Z AUTO 08011G17KT 1/2SM VV006 00/00 A2917 RMK AO1 PRESFR SLP901
SPECI CYNL 180335Z AUTO 09012KT 5/8SM VV005 01/00 A2919 RMK AO1 PRESFR SLP910
SPECI CYNL 180333Z AUTO 09013KT 3/4SM VV005 01/00 A2920 RMK AO1 PRESFR SLP910
SPECI CYNL 180331Z AUTO 09009G16KT 1 1/4SM VV004 01/00 A2920 RMK AO1 PRESFR SLP911
SPECI CYNL 180328Z AUTO 09011G17KT 1 1/2SM VV004 01/00 A2920 RMK AO1 PRESFR SLP912
SPECI CYNL 180326Z AUTO 09011G17KT 2 1/2SM OVC004 01/00 A2920 RMK AO1 PRESFR SLP912
METAR CYNL 180300Z AUTO 08011KT 7SM OVC004 01/00 A2921 RMK AO1 PRESFR SLP915
SPECI CYNL 180251Z AUTO 08011KT 7SM BKN004 OVC008 01/00 A2921 RMK AO1 PRESFR SLP917
SPECI CYNL 180250Z AUTO 08011KT 6SM VV005 01/00 A2922 RMK AO1 PRESFR SLP918
SPECI CYNL 180235Z AUTO 08011G16KT 5SM VV004 00/00 A2923 RMK AO1 PRESFR SLP921
SPECI CYNL 180219Z AUTO 09010KT 3SM VV007 00/00 A2924 RMK AO1 PRESFR SLP925
SPECI CYNL 180216Z AUTO 09010KT 2SM VV006 00/00 A2924 RMK AO1 PRESFR SLP925
SPECI CYNL 180213Z AUTO 09010KT 1 1/2SM VV006 00/00 A2924 RMK AO1 PRESFR SLP926
SPECI CYNL 180207Z AUTO 09010G15KT 1SM VV006 00/00 A2925 RMK AO1 PRESFR SLP928
SPECI CYNL 180201Z AUTO 09010G15KT 3/4SM VV006 00/00 A2925 RMK AO1 PRESFR SLP930
METAR CYNL 180200Z AUTO 09011KT 5/8SM VV006 00/00 A2925 RMK AO1 PRESFR SLP930
SPECI CYNL 180158Z AUTO 09011KT 3/4SM VV006 00/00 A2925 RMK AO1 PRESFR SLP930
SPECI CYNL 180135Z AUTO 09009KT 1 1/4SM VV006 00/00 A2928 RMK AO1 PRESFR SLP938
SPECI CYNL 180133Z AUTO 09009KT 1 3/4SM VV005 00/00 A2928 RMK AO1 PRESFR SLP939
SPECI CYNL 180117Z AUTO 08007KT 2SM VV007 00/00 A2929 RMK AO1 PRESFR SLP943
SPECI CYNL 180114Z AUTO 08008KT 1 1/2SM VV007 00/00 A2929 RMK AO1 PRESFR SLP944
SPECI CYNL 180107Z AUTO 08008KT 1SM VV006 00/00 A2930 RMK AO1 PRESFR SLP945
SPECI CYNL 180102Z AUTO 08008KT 3/4SM VV006 00/00 A2930 RMK AO1 PRESFR SLP948
METAR CYNL 180100Z AUTO 08008KT 5/8SM VV006 00/00 A2931 RMK AO1 PRESFR SLP948
SPECI CYNL 180042Z AUTO 08007KT 5/8SM VV006 00/00 A2932 RMK AO1 SLP955
SPECI CYNL 180034Z AUTO 09007KT 3/4SM VV006 01/00 A2933 RMK AO1 SLP956
SPECI CYNL 180033Z AUTO 09008KT 5/8SM VV006 01/00 A2933 RMK AO1 SLP956
SPECI CYNL 180032Z AUTO 09007KT 3/4SM VV006 01/00 A2933 RMK AO1 SLP957
SPECI CYNL 180031Z AUTO 09007KT 5/8SM VV006 01/00 A2933 RMK AO1 SLP957
SPECI CYNL 180030Z AUTO 09007KT 3/4SM VV006 01/00 A2933 RMK AO1 SLP957
SPECI CYNL 180029Z AUTO 09007KT 5/8SM VV006 01/01 A2933 RMK AO1 SLP958
SPECI CYNL 180024Z AUTO 09007KT 3/4SM VV007 01/01 A2934 RMK AO1 SLP959
SPECI CYNL 180015Z AUTO 10008KT 1 1/4SM VV007 01/01 A2934 RMK AO1 SLP961
SPECI CYNL 180014Z AUTO 10008KT 1 1/2SM VV007 01/01 A2935 RMK AO1 SLP961
SPECI CYNL 180013Z AUTO 10007KT 1 1/4SM VV007 01/01 A2935 RMK AO1 SLP962
SPECI CYNL 180010Z AUTO 10009KT 1 1/2SM VV007 01/01 A2935 RMK AO1 SLP962
SPECI CYNL 180004Z AUTO 11008KT 2 1/2SM VV006 01/01 A2935 RMK AO1 SLP962
SPECI CYNL 180003Z AUTO 11008KT 2 1/2SM BKN003 OVC007 01/01 A2935 RMK AO1 SLP962
METAR CYNL 180000Z AUTO 11008KT 3SM OVC003 01/01 A2935 RMK AO1 SLP962
SPECI CYNL 172359Z AUTO 10009KT 2 1/2SM OVC003 01/01 A2935 RMK AO1 SLP962
SPECI CYNL 172324Z AUTO 09009KT 7SM OVC003 01/01 A2935 RMK AO1 PRESFR SLP964
SPECI CYNL 172302Z AUTO 09008KT 3SM VV002 01/01 A2936 RMK AO1 PRESFR SLP968
METAR CYNL 172300Z AUTO 10008KT 2 1/2SM VV002 01/01 A2937 RMK AO1 PRESFR SLP968
SPECI CYNL 172259Z AUTO 09009KT 2SM VV002 01/01 A2937 RMK AO1 PRESFR SLP968
SPECI CYNL 172257Z AUTO 09008KT 1 1/2SM VV002 01/01 A2937 RMK AO1 SLP968
SPECI CYNL 172255Z AUTO 09008KT 1 1/4SM VV002 01/01 A2937 RMK AO1 SLP968
SPECI CYNL 172252Z AUTO 09009KT 3/4SM VV002 01/01 A2937 RMK AO1 SLP969
SPECI CYNL 172250Z AUTO 09009KT 1 1/4SM OVC002 01/01 A2937 RMK AO1 SLP969
SPECI CYNL 172249Z AUTO 09010KT 1 1/2SM OVC002 01/01 A2937 RMK AO1 SLP970
SPECI CYNL 172244Z AUTO 10009KT 1 1/4SM OVC002 01/01 A2937 RMK AO1 SLP971
SPECI CYNL 172243Z AUTO 10009KT 1 1/2SM OVC002 01/01 A2937 RMK AO1 SLP971
SPECI CYNL 172235Z AUTO 11009KT 1SM VV002 01/01 A2938 RMK AO1 SLP974
SPECI CYNL 172234Z AUTO 11008KT 3/4SM VV002 01/01 A2938 RMK AO1 SLP974
SPECI CYNL 172225Z AUTO 11010KT 5/8SM VV002 01/01 A2939 RMK AO1 SLP977
SPECI CYNL 172224Z AUTO 11009KT 3/4SM VV002 01/01 A2939 RMK AO1 SLP977
SPECI CYNL 172204Z AUTO 11010G16KT 1/2SM VV002 01/01 A2940 RMK AO1 SLP980
SPECI CYNL 172203Z AUTO 10010G16KT 3/4SM VV002 01/01 A2940 RMK AO1 SLP980
SPECI CYNL 172202Z AUTO 10009G16KT 1SM VV002 01/01 A2940 RMK AO1 SLP981
METAR CYNL 172200Z AUTO 11008G16KT 1 1/2SM VV002 01/01 A2940 RMK AO1 SLP981
SPECI CYNL 172158Z AUTO 11008G16KT 1 1/2SM OVC002 01/01 A2941 RMK AO1 SLP982
SPECI CYNL 172157Z AUTO 11011G16KT 1 1/4SM OVC002 01/01 A2940 RMK AO1 PRESFR SLP981
SPECI CYNL 172154Z AUTO 11011G17KT 2 1/2SM OVC002 01/01 A2940 RMK AO1 PRESFR SLP982
SPECI CYNL 172140Z AUTO 11009KT 9SM OVC002 01/01 A2941 RMK AO1 PRESFR SLP984
SPECI CYNL 172131Z AUTO 11011KT 9SM OVC003 01/01 A2941 RMK AO1 PRESFR SLP985
SPECI CYNL 172104Z AUTO 10008KT 3SM OVC002 01/01 A2941 RMK AO1 PRESFR SLP985
SPECI CYNL 172103Z AUTO 09008KT 2 1/2SM OVC002 01/01 A2941 RMK AO1 PRESFR SLP985
METAR CYNL 172100Z AUTO 10010KT 4SM OVC002 01/01 A2942 RMK AO1 PRESFR SLP986
SPECI CYNL 172053Z AUTO 10010KT 4SM OVC002 01/01 A2942 RMK AO1 PRESFR SLP988
SPECI CYNL 172051Z AUTO 10010KT 4SM VV003 01/01 A2942 RMK AO1 PRESFR SLP988
SPECI CYNL 172050Z AUTO 10011KT 2 1/2SM VV003 01/01 A2942 RMK AO1 PRESFR SLP988
SPECI CYNL 172047Z AUTO 10007KT 2SM VV002 01/01 A2943 RMK AO1 PRESFR SLP989
SPECI CYNL 172045Z AUTO 11008KT 1 1/2SM VV002 01/01 A2943 RMK AO1 PRESFR SLP989
SPECI CYNL 172044Z AUTO 11009KT 1 1/4SM VV002 01/01 A2943 RMK AO1 PRESFR SLP990
SPECI CYNL 172043Z AUTO 10009KT 3/4SM VV002 01/01 A2943 RMK AO1 PRESFR SLP990
SPECI CYNL 172032Z AUTO 10009KT 1/4SM VV002 01/01 A2943 RMK AO1 PRESFR SLP991
SPECI CYNL 172017Z AUTO 10009KT 1/8SM VV002 01/01 A2944 RMK AO1 PRESFR SLP995
SPECI CYNL 172013Z AUTO 10010KT 1/4SM VV002 01/01 A2944 RMK AO1 PRESFR SLP996
SPECI CYNL 172012Z AUTO 11009KT 1/8SM VV002 01/01 A2944 RMK AO1 PRESFR SLP996
SPECI CYNL 172009Z AUTO 10009KT 1/4SM VV002 01/01 A2945 RMK AO1 PRESFR SLP997
SPECI CYNL 172007Z AUTO 10009KT 1/8SM VV002 01/01 A2945 RMK AO1 PRESFR SLP998
METAR CYNL 172000Z AUTO 10009KT 3/8SM VV002 01/01 A2946 RMK AO1 PRESFR SLP000
SPECI CYNL 171953Z AUTO 11009KT 5/8SM VV002 01/01 A2946 RMK AO1 PRESFR SLP001
SPECI CYNL 171952Z AUTO 11009KT 3/4SM VV002 01/01 A2946 RMK AO1 PRESFR SLP001
SPECI CYNL 171951Z AUTO 12009KT 5/8SM VV002 01/01 A2946 RMK AO1 PRESFR SLP002
SPECI CYNL 171947Z AUTO 11007KT 3/4SM VV002 01/01 A2946 RMK AO1 PRESFR SLP002
SPECI CYNL 171939Z AUTO 11010KT 5/8SM VV002 01/01 A2947 RMK AO1 PRESFR SLP003
SPECI CYNL 171935Z AUTO 11009KT 1 1/4SM VV002 01/01 A2947 RMK AO1 PRESFR SLP004
SPECI CYNL 171929Z AUTO 11008KT 1 1/2SM VV002 01/01 A2947 RMK AO1 PRESFR SLP004
SPECI CYNL 171926Z AUTO 11008KT 1 3/4SM VV003 01/01 A2947 RMK AO1 PRESFR SLP004
SPECI CYNL 171925Z AUTO 11008KT 2 1/2SM VV003 01/01 A2947 RMK AO1 PRESFR SLP004
SPECI CYNL 171921Z AUTO 11008KT 6SM VV003 01/01 A2947 RMK AO1 PRESFR SLP005
SPECI CYNL 171912Z AUTO 11008KT 9SM OVC002 01/01 A2948 RMK AO1 PRESFR SLP007
SPECI CYNL 171911Z AUTO 11007KT 7SM VV003 01/01 A2948 RMK AO1 PRESFR SLP008
METAR CYNL 171900Z AUTO 10008KT 9SM OVC002 01/01 A2949 RMK AO1 PRESFR SLP011
METAR CYNL 171800Z AUTO 12007KT 5SM OVC002 01/01 A2952 RMK AO1 PRESFR SLP022
SPECI CYNL 171753Z AUTO 12007KT 4SM OVC002 01/01 A2953 RMK AO1 SLP024
SPECI CYNL 171751Z AUTO 13007KT 3SM OVC003 01/01 A2953 RMK AO1 SLP024
SPECI CYNL 171748Z AUTO 13008KT 2 1/2SM VV003 01/01 A2953 RMK AO1 SLP024
SPECI CYNL 171747Z AUTO 12007KT 3SM VV003 01/01 A2953 RMK AO1 SLP024
SPECI CYNL 171745Z AUTO 12008KT 2 1/2SM VV003 01/01 A2953 RMK AO1 SLP024
SPECI CYNL 171736Z AUTO 13006KT 3SM VV003 01/01 A2953 RMK AO1 SLP026
SPECI CYNL 171718Z AUTO 14007KT 5SM OVC002 01/01 A2954 RMK AO1 SLP028
SPECI CYNL 171715Z AUTO 14006KT 4SM VV003 01/01 A2954 RMK AO1 SLP029
SPECI CYNL 171714Z AUTO 13007KT 3SM VV002 01/01 A2954 RMK AO1 SLP029
SPECI CYNL 171712Z AUTO 13007KT 2SM VV002 01/01 A2954 RMK AO1 SLP029
SPECI CYNL 171709Z AUTO 13005KT 1 3/4SM VV002 01/01 A2954 RMK AO1 SLP030
SPECI CYNL 171707Z AUTO 13006KT 2SM VV002 01/01 A2954 RMK AO1 SLP030
SPECI CYNL 171705Z AUTO 13005KT 2SM VV003 01/01 A2954 RMK AO1 SLP030
SPECI CYNL 171703Z AUTO 13005KT 2SM VV002 01/01 A2954 RMK AO1 SLP030
SPECI CYNL 171702Z AUTO 13005KT 1 3/4SM VV002 01/01 A2955 RMK AO1 SLP030
METAR CYNL 171700Z AUTO 13007KT 1 1/4SM VV002 01/01 A2955 RMK AO1 SLP030
SPECI CYNL 171657Z AUTO 13006KT 1 3/4SM VV002 01/01 A2955 RMK AO1 PRESFR SLP032
SPECI CYNL 171656Z AUTO 13006KT 2SM VV002 01/01 A2955 RMK AO1 PRESFR SLP032
SPECI CYNL 171655Z AUTO 14007KT 2 1/2SM VV003 01/01 A2955 RMK AO1 PRESFR SLP032
SPECI CYNL 171652Z AUTO 13007KT 2SM OVC002 01/01 A2955 RMK AO1 PRESFR SLP033
SPECI CYNL 171650Z AUTO 13008KT 1 3/4SM OVC002 01/01 A2955 RMK AO1 PRESFR SLP033
SPECI CYNL 171643Z AUTO 13007KT 2SM OVC002 01/01 A2955 RMK AO1 PRESFR SLP033
SPECI CYNL 171632Z AUTO 13008KT 1 3/4SM OVC002 01/01 A2956 RMK AO1 PRESFR SLP035
SPECI CYNL 171631Z AUTO 13008KT 2SM OVC002 01/01 A2956 RMK AO1 PRESFR SLP036
SPECI CYNL 171630Z AUTO 13007KT 1 3/4SM OVC002 01/01 A2956 RMK AO1 PRESFR SLP036
SPECI CYNL 171626Z AUTO 15006KT 2 1/2SM OVC002 01/01 A2956 RMK AO1 PRESFR SLP038
SPECI CYNL 171625Z AUTO 14007KT 2SM VV003 01/01 A2956 RMK AO1 PRESFR SLP038
SPECI CYNL 171623Z AUTO 14007KT 1 3/4SM VV003 01/01 A2956 RMK AO1 PRESFR SLP038
SPECI CYNL 171622Z AUTO 13007KT 2SM VV003 01/01 A2956 RMK AO1 PRESFR SLP038
SPECI CYNL 171621Z AUTO 14007KT 2SM OVC002 01/01 A2956 RMK AO1 PRESFR SLP038
SPECI CYNL 171619Z AUTO 14009KT 1 3/4SM OVC002 01/01 A2956 RMK AO1 PRESFR SLP037
SPECI CYNL 171615Z AUTO 14006KT 2 1/2SM OVC002 01/01 A2956 RMK AO1 PRESFR SLP037
SPECI CYNL 171612Z AUTO 13007KT 1 3/4SM OVC002 01/01 A2956 RMK AO1 PRESFR SLP037
SPECI CYNL 171606Z AUTO 13006KT 2 1/2SM OVC002 01/01 A2956 RMK AO1 PRESFR SLP037
SPECI CYNL 171604Z AUTO 14007KT 2SM VV003 01/01 A2956 RMK AO1 PRESFR SLP037
SPECI CYNL 171601Z AUTO 14006KT 1 1/2SM VV002 01/01 A2956 RMK AO1 PRESFR SLP037
METAR CYNL 171600Z AUTO 14006KT 1 1/4SM VV002 01/01 A2956 RMK AO1 PRESFR SLP037
SPECI CYNL 171556Z AUTO 13005KT 1 1/4SM VV002 01/01 A2956 RMK AO1 SLP037
SPECI CYNL 171555Z AUTO 13006KT 1 1/4SM VV003 01/01 A2956 RMK AO1 SLP037
SPECI CYNL 171544Z AUTO 13007KT 1 1/2SM VV003 01/01 A2957 RMK AO1 SLP038
SPECI CYNL 171543Z AUTO 13008KT 1 1/4SM VV003 01/01 A2957 RMK AO1 SLP038
SPECI CYNL 171542Z AUTO 13008KT 1 1/4SM OVC002 01/01 A2957 RMK AO1 SLP039
SPECI CYNL 171540Z AUTO 14007KT 1 3/4SM OVC002 01/01 A2957 RMK AO1 SLP039
SPECI CYNL 171536Z AUTO 13007KT 1 1/2SM VV003 01/01 A2957 RMK AO1 SLP039
SPECI CYNL 171529Z AUTO 14008KT 2SM VV003 01/00 A2957 RMK AO1 SLP039
SPECI CYNL 171528Z AUTO 14009KT 1 3/4SM VV003 01/00 A2957 RMK AO1 SLP039
SPECI CYNL 171525Z AUTO 14009KT 2SM VV003 01/00 A2957 RMK AO1 SLP040
SPECI CYNL 171510Z AUTO 15009KT 2 1/2SM OVC002 01/00 A2958 RMK AO1 SLP043
METAR CYNL 171500Z AUTO 15007KT 6SM OVC002 00/00 A2958 RMK AO1 SLP044
SPECI CYNL 171451Z AUTO 14008KT 7SM OVC002 00/00 A2958 RMK AO1 PRESFR SLP044
METAR CYNL 171400Z AUTO 14009KT 7SM OVC003 00/00 A2960 RMK AO1 PRESFR SLP049
SPECI CYNL 171348Z AUTO 13009KT 3SM OVC003 00/00 A2960 RMK AO1 SLP050
SPECI CYNL 171343Z AUTO 12008KT 2 1/2SM OVC003 00/00 A2960 RMK AO1 SLP050
METAR CYNL 171300Z AUTO 15006KT 9SM OVC004 00/00 A2963 RMK AO1 SLP059
SPECI CYNL 171243Z AUTO 14005KT 3SM BKN004 OVC007 00/00 A2962 RMK AO1 SLP058
SPECI CYNL 171242Z AUTO 14005KT 2 1/2SM BKN004 OVC007 00/00 A2962 RMK AO1 SLP058
SPECI CYNL 171241Z AUTO 14005KT 3SM BKN004 OVC007 00/00 A2962 RMK AO1 SLP058
SPECI CYNL 171237Z AUTO 14006KT 2SM BKN004 OVC007 00/00 A2962 RMK AO1 SLP058
SPECI CYNL 171231Z AUTO 14005KT 2SM VV006 00/00 A2963 RMK AO1 SLP059
SPECI CYNL 171229Z AUTO 14005KT 1 1/2SM VV006 00/00 A2963 RMK AO1 SLP059
SPECI CYNL 171226Z AUTO 14005KT 1 1/4SM VV005 00/00 A2963 RMK AO1 SLP059
SPECI CYNL 171225Z AUTO 14005KT 1 1/2SM VV005 00/00 A2963 RMK AO1 SLP059
SPECI CYNL 171224Z AUTO 14006KT 1 1/2SM VV004 00/00 A2963 RMK AO1 SLP059
SPECI CYNL 171221Z AUTO 14006KT 1SM VV004 00/00 A2963 RMK AO1 SLP059
SPECI CYNL 171213Z AUTO 13006KT 1SM VV007 00/00 A2963 RMK AO1 SLP061
SPECI CYNL 171212Z AUTO 13005KT 3/4SM VV007 00/00 A2963 RMK AO1 SLP061
SPECI CYNL 171204Z AUTO 13006KT 5/8SM VV007 00/M00 A2963 RMK AO1 SLP062
SPECI CYNL 171202Z AUTO 13006KT 3/4SM VV006 00/M00 A2963 RMK AO1 SLP062
METAR CYNL 171200Z AUTO 13005KT 1SM VV006 00/M00 A2963 RMK AO1 SLP062
SPECI CYNL 171156Z AUTO 13006KT 3/4SM VV006 00/M00 A2963 RMK AO1 SLP061
SPECI CYNL 171153Z AUTO 13006KT 1SM BKN005 OVC007 00/M00 A2963 RMK AO1 SLP062
SPECI CYNL 171151Z AUTO 13005KT 1 3/4SM BKN005 BKN007 OVC009 00/M00 A2964 RMK AO1 SLP062
SPECI CYNL 171149Z AUTO 13006KT 2 1/2SM BKN005 BKN008 OVC009 00/M00 A2964 RMK AO1 SLP062
SPECI CYNL 171132Z AUTO 15006KT 3SM SCT005 OVC008 00/M00 A2964 RMK AO1 SLP065
SPECI CYNL 171130Z AUTO 14007KT 2SM VV006 00/M00 A2965 RMK AO1 SLP065
SPECI CYNL 171125Z AUTO 14007KT 1 1/2SM VV007 00/M00 A2964 RMK AO1 SLP065
SPECI CYNL 171122Z AUTO 14006KT 1 1/4SM VV007 00/M00 A2964 RMK AO1 SLP065
SPECI CYNL 171120Z AUTO 14008KT 1 3/4SM VV007 00/M00 A2964 RMK AO1 SLP065
SPECI CYNL 171118Z AUTO 15007KT 2 1/2SM VV007 00/M00 A2965 RMK AO1 SLP066
SPECI CYNL 171115Z AUTO 14006KT 3SM SCT005 BKN008 OVC010 00/M00 A2965 RMK AO1 SLP066
SPECI CYNL 171108Z AUTO 14007KT 2 1/2SM BKN005 OVC009 00/M00 A2965 RMK AO1 SLP066
SPECI CYNL 171107Z AUTO 14007KT 3SM BKN005 OVC009 00/M00 A2965 RMK AO1 SLP066
SPECI CYNL 171104Z AUTO 14007KT 2 1/2SM SCT005 OVC009 00/M00 A2965 RMK AO1 SLP067
SPECI CYNL 171101Z AUTO 14007KT 3SM SCT005 OVC009 00/M00 A2965 RMK AO1 SLP067
METAR CYNL 171100Z AUTO 14006KT 2 1/2SM VV008 M00/M00 A2965 RMK AO1 SLP067
SPECI CYNL 171056Z AUTO 14006KT 2SM VV009 00/M00 A2965 RMK AO1 SLP068
SPECI CYNL 171051Z AUTO 14007KT 1 1/2SM VV009 M00/M00 A2966 RMK AO1 SLP069
SPECI CYNL 171044Z AUTO 14007KT 1 1/4SM BKN005 OVC007 M00/M00 A2966 RMK AO1 SLP070
SPECI CYNL 171042Z AUTO 14007KT 1 3/4SM BKN005 BKN007 OVC008 M00/M00 A2966 RMK AO1 SLP070
SPECI CYNL 171041Z AUTO 14006KT 2SM BKN005 BKN007 OVC008 M00/M00 A2966 RMK AO1 SLP070
SPECI CYNL 171039Z AUTO 14006KT 1 1/2SM BKN005 OVC008 M00/M00 A2966 RMK AO1 SLP071
SPECI CYNL 171038Z AUTO 13007KT 1 1/4SM BKN005 OVC008 M00/M00 A2966 RMK AO1 SLP071
SPECI CYNL 171037Z AUTO 14006KT 1 1/2SM BKN005 OVC008 M00/M00 A2966 RMK AO1 SLP071
SPECI CYNL 171027Z AUTO 14006KT 2SM BKN005 OVC008 M00/M01 A2966 RMK AO1 SLP071
SPECI CYNL 171023Z AUTO 15005KT 1 1/2SM BKN005 BKN007 OVC009 M00/M01 A2966 RMK AO1 SLP071
SPECI CYNL 171020Z AUTO 14006KT 1 1/4SM BKN005 OVC007 M00/M01 A2966 RMK AO1 SLP071
SPECI CYNL 171018Z AUTO 14005KT 1 3/4SM BKN005 OVC007 M00/M01 A2966 RMK AO1 SLP071
SPECI CYNL 171017Z AUTO 14005KT 2SM BKN005 OVC007 M00/M01 A2966 RMK AO1 SLP071
SPECI CYNL 171012Z AUTO 14006KT 1 3/4SM OVC005 M00/M01 A2966 RMK AO1 SLP070
SPECI CYNL 171011Z AUTO 14006KT 2 1/2SM OVC005 M00/M01 A2966 RMK AO1 SLP070
METAR CYNL 171000Z AUTO 14008KT 4SM OVC005 M00/M01 A2966 RMK AO1 SLP071
SPECI CYNL 170954Z AUTO 15007KT 3SM OVC006 M00/M01 A2966 RMK AO1 SLP071
SPECI CYNL 170950Z AUTO 14008KT 2SM OVC006 M00/M01 A2966 RMK AO1 SLP072
SPECI CYNL 170939Z AUTO 15007KT 1 3/4SM OVC006 M00/M01 A2967 RMK AO1 SLP073
METAR CYNL 170900Z AUTO 14006KT 9SM BKN007 BKN009 OVC029 M00/M01 A2967 RMK AO1 SLP073
SPECI CYNL 170837Z AUTO 14007KT 4SM VV008 M00/M01 A2967 RMK AO1 SLP073
SPECI CYNL 170835Z AUTO 14007KT 2 1/2SM VV008 M00/M01 A2967 RMK AO1 SLP074
SPECI CYNL 170831Z AUTO 15007KT 9SM BKN009 M00/M01 A2967 RMK AO1 SLP074
SPECI CYNL 170827Z AUTO 15006KT 9SM SCT008 BKN024 M00/M01 A2967 RMK AO1 SLP074
SPECI CYNL 170825Z AUTO 15006KT 9SM SCT008 BKN032 M00/M01 A2967 RMK AO1 SLP074
SPECI CYNL 170822Z AUTO 15007KT 9SM SCT008 BKN024 M00/M01 A2968 RMK AO1 SLP075
SPECI CYNL 170815Z AUTO 15006KT 9SM FEW007 SCT008 BKN011 M00/M01 A2968 RMK AO1 SLP076
METAR CYNL 170800Z AUTO 13007KT 9SM BKN007 OVC008 M00/M01 A2967 RMK AO1 SLP074
METAR CYNL 170700Z AUTO 16006KT 9SM OVC006 00/M01 A2969 RMK AO1 SLP078
METAR CYNL 170600Z AUTO 14005KT 9SM OVC005 M00/M01 A2969 RMK AO1 SLP078
SPECI CYNL 170546Z AUTO 16006KT 9SM OVC005 M00/M01 A2968 RMK AO1 SLP078
SPECI CYNL 170527Z AUTO 15005KT 9SM OVC004 M00/M01 A2969 RMK AO1 SLP079
SPECI CYNL 170507Z AUTO 18004KT 9SM SCT005 BKN014 M01/M01 A2969 RMK AO1 SLP081
METAR CYNL 170500Z AUTO 18003KT 9SM FEW006 SCT014 BKN054 M01/M01 A2969 RMK AO1 SLP080
SPECI CYNL 170457Z AUTO 16003KT 9SM FEW006 BKN054 M01/M02 A2969 RMK AO1 SLP080
METAR CYNL 170400Z AUTO 10005KT 9SM FEW011 BKN056 M01/M02 A2969 RMK AO1 SLP079
SPECI CYNL 170348Z AUTO 10005KT 9SM SCT011 OVC056 M01/M02 A2969 RMK AO1 SLP080
METAR CYNL 170300Z AUTO 12004KT 9SM OVC012 M00/M02 A2970 RMK AO1 SLP084
SPECI CYNL 170224Z AUTO 11003KT 9SM BKN014 OVC017 M00/M02 A2970 RMK AO1 SLP085
METAR CYNL 170200Z AUTO 14005KT 9SM OVC017 M00/M02 A2971 RMK AO1 SLP088
SPECI CYNL 170129Z AUTO 13003KT 9SM BKN020 BKN030 M00/M01 A2971 RMK AO1 SLP088
SPECI CYNL 170110Z AUTO 12003KT 9SM FEW007 OVC029 M00/M01 A2971 RMK AO1 SLP088
METAR CYNL 170100Z AUTO 08003KT 9SM FEW007 OVC031 M00/M01 A2971 RMK AO1 SLP086
SPECI CYNL 170002Z AUTO 03005KT 9SM FEW006 SCT038 OVC054 M00/M01 A2970 RMK AO1 SLP082
METAR CYNL 170000Z AUTO 03005KT 9SM SCT038 OVC054 M00/M01 A2970 RMK AO1 SLP082
SPECI CYNL 162324Z AUTO 00002KT 9SM SCT011 BKN052 00/M01 A2969 RMK AO1 PRESRR SLP080
SPECI CYNL 162322Z AUTO 00002KT 9SM SCT011 BKN022 BKN052 00/M01 A2969 RMK AO1 PRESRR SLP080
SPECI CYNL 162319Z AUTO 34002KT 9SM BKN011 BKN050 00/M01 A2969 RMK AO1 PRESRR SLP080
SPECI CYNL 162318Z AUTO 34003KT 9SM SCT010 BKN021 BKN050 00/M01 A2969 RMK AO1 PRESRR SLP080
SPECI CYNL 162313Z AUTO 00000KT 9SM BKN011 OVC052 00/M01 A2969 RMK AO1 PRESRR SLP080
METAR CYNL 162300Z AUTO 00000KT 9SM FEW004 BKN020 OVC052 00/M01 A2969 RMK AO1 PRESRR SLP079
SPECI CYNL 162247Z AUTO 00000KT 9SM FEW004 SCT011 BKN019 00/M01 A2969 RMK AO1 PRESRR SLP078
SPECI CYNL 162242Z AUTO 00000KT 3SM FEW004 BKN012 BKN017 00/M01 A2968 RMK AO1 PRESRR SLP077
SPECI CYNL 162240Z AUTO 32002KT 1 1/2SM VV005 M00/M01 A2968 RMK AO1 PRESRR SLP077
SPECI CYNL 162239Z AUTO 32003KT 1 1/4SM VV006 M00/M01 A2968 RMK AO1 PRESRR SLP077
SPECI CYNL 162238Z AUTO 33003KT 1 1/2SM VV006 M00/M01 A2968 RMK AO1 PRESRR SLP076
SPECI CYNL 162237Z AUTO 32002KT 2SM VV007 M00/M01 A2968 RMK AO1 PRESRR SLP076
SPECI CYNL 162236Z AUTO 32003KT 3SM VV008 M00/M01 A2968 RMK AO1 PRESRR SLP076
SPECI CYNL 162235Z AUTO 32003KT 2SM VV009 M00/M01 A2968 RMK AO1 PRESRR SLP076
SPECI CYNL 162230Z AUTO 33004KT 1 1/4SM VV011 M00/M01 A2967 RMK AO1 PRESRR SLP074
SPECI CYNL 162228Z AUTO 33004KT 1 3/4SM BKN013 BKN047 M00/M01 A2967 RMK AO1 PRESRR SLP074
SPECI CYNL 162227Z AUTO 33004KT 2 1/2SM BKN012 BKN047 M00/M01 A2967 RMK AO1 PRESRR SLP074
SPECI CYNL 162220Z AUTO 33003KT 3SM BKN012 BKN047 00/M01 A2967 RMK AO1 PRESRR SLP073
SPECI CYNL 162218Z AUTO 32003KT 2SM BKN012 00/M01 A2967 RMK AO1 PRESRR SLP073
METAR CYNL 162200Z AUTO 32003KT 4SM BKN011 00/M01 A2966 RMK AO1 PRESRR SLP070
SPECI CYNL 162159Z AUTO 34003KT 3SM BKN011 00/M01 A2966 RMK AO1 PRESRR SLP070
SPECI CYNL 162157Z AUTO 33003KT 2SM BKN011 BKN052 00/M01 A2966 RMK AO1 PRESRR SLP070
SPECI CYNL 162155Z AUTO 33004KT 1 3/4SM BKN011 BKN052 00/M01 A2966 RMK AO1 PRESRR SLP069
SPECI CYNL 162154Z AUTO 34004KT 2SM BKN011 BKN052 00/M01 A2966 RMK AO1 PRESRR SLP069
SPECI CYNL 162150Z AUTO 34005KT 8SM BKN011 00/M01 A2966 RMK AO1 PRESRR SLP069
SPECI CYNL 162134Z AUTO 34004KT 7SM FEW008 SCT019 00/M01 A2965 RMK AO1 PRESRR SLP065
SPECI CYNL 162125Z AUTO 30003KT 9SM SCT012 BKN052 00/M01 A2964 RMK AO1 PRESRR SLP064
SPECI CYNL 162120Z AUTO 30005KT 5SM SCT012 BKN015 00/M01 A2964 RMK AO1 PRESRR SLP063
METAR CYNL 162100Z AUTO 32006KT 9SM BKN012 01/M01 A2963 RMK AO1 PRESRR SLP058
SPECI CYNL 162056Z AUTO 30005KT 9SM BKN012 01/M01 A2963 RMK AO1 PRESRR SLP057
SPECI CYNL 162038Z AUTO 33008KT 9SM SCT011 01/M01 A2962 RMK AO1 PRESRR SLP054
SPECI CYNL 162030Z AUTO 32005KT 9SM SCT011 BKN014 01/M01 A2961 RMK AO1 PRESRR SLP051
SPECI CYNL 162026Z AUTO 32006KT 9SM SCT011 BKN039 01/M01 A2961 RMK AO1 PRESRR SLP052
SPECI CYNL 162015Z AUTO 33005KT 9SM FEW008 OVC011 01/M00 A2960 RMK AO1 PRESRR SLP050
SPECI CYNL 162011Z AUTO 32006KT 3SM VV011 01/M00 A2960 RMK AO1 PRESRR SLP050
SPECI CYNL 162009Z AUTO 33007KT 2SM VV012 01/M01 A2960 RMK AO1 PRESRR SLP050
SPECI CYNL 162006Z AUTO 33007KT 3SM VV012 01/M01 A2960 RMK AO1 PRESRR SLP050
SPECI CYNL 162004Z AUTO 32007KT 2SM VV012 01/M01 A2960 RMK AO1 PRESRR SLP049
SPECI CYNL 162002Z AUTO 32008KT 1 3/4SM FEW009 BKN011 BKN040 01/M01 A2960 RMK AO1 PRESRR SLP049
SPECI CYNL 162001Z AUTO 32008KT 2SM BKN011 BKN040 01/M01 A2960 RMK AO1 PRESRR SLP049
METAR CYNL 162000Z AUTO 31008KT 3SM BKN011 BKN040 01/M01 A2960 RMK AO1 PRESRR SLP049
SPECI CYNL 161957Z AUTO 32006KT 4SM BKN010 BKN041 01/M01 A2960 RMK AO1 PRESRR SLP049
SPECI CYNL 161956Z AUTO 32005KT 2 1/2SM FEW009 BKN011 BKN041 01/M01 A2960 RMK AO1 PRESRR SLP049
SPECI CYNL 161954Z AUTO 33007KT 2SM BKN010 BKN042 01/M01 A2960 RMK AO1 PRESRR SLP048
SPECI CYNL 161950Z AUTO 33006KT 9SM SCT009 BKN016 01/M00 A2960 RMK AO1 PRESRR SLP047
SPECI CYNL 161923Z AUTO 31008KT 5SM FEW007 SCT010 01/M01 A2959 RMK AO1 PRESRR SLP045
SPECI CYNL 161916Z AUTO 32008KT 9SM SCT008 BKN027 01/M01 A2958 RMK AO1 PRESRR SLP043
SPECI CYNL 161915Z AUTO 32008KT 9SM SCT008 BKN020 BKN027 01/M01 A2958 RMK AO1 PRESRR SLP043
SPECI CYNL 161914Z AUTO 32007KT 8SM FEW008 SCT012 BKN027 01/M01 A2958 RMK AO1 PRESRR SLP043
SPECI CYNL 161912Z AUTO 31004KT 9SM FEW008 SCT011 BKN020 01/M01 A2958 RMK AO1 PRESRR SLP043
SPECI CYNL 161905Z AUTO 32008KT 9SM SCT007 BKN012 01/M01 A2958 RMK AO1 PRESRR SLP041
METAR CYNL 161900Z AUTO 32007KT 7SM BKN008 OVC012 01/00 A2957 RMK AO1 PRESRR SLP039
SPECI CYNL 161859Z AUTO 32007KT 5SM BKN008 OVC012 01/00 A2957 RMK AO1 PRESRR SLP039
SPECI CYNL 161857Z AUTO 31006KT 3SM SCT008 OVC012 01/00 A2957 RMK AO1 PRESRR SLP038
SPECI CYNL 161855Z AUTO 31006G16KT 2 1/2SM SCT008 OVC012 01/00 A2957 RMK AO1 PRESRR SLP038
SPECI CYNL 161850Z AUTO 31007G16KT 3SM SCT009 OVC012 01/00 A2957 RMK AO1 PRESRR SLP037
SPECI CYNL 161843Z AUTO 31006KT 3SM VV010 01/00 A2956 RMK AO1 PRESRR SLP035
SPECI CYNL 161842Z AUTO 31005KT 2SM VV010 01/00 A2956 RMK AO1 PRESRR SLP034
SPECI CYNL 161832Z AUTO 32009KT 1 1/4SM FEW008 BKN011 01/M00 A2955 RMK AO1 PRESRR SLP032
SPECI CYNL 161831Z AUTO 32009KT 1 3/4SM FEW008 BKN011 01/M00 A2955 RMK AO1 PRESRR SLP031
SPECI CYNL 161830Z AUTO 32007KT 3SM SCT008 BKN013 01/M00 A2955 RMK AO1 PRESRR SLP031
SPECI CYNL 161829Z AUTO 32007KT 9SM FEW007 BKN009 BKN013 01/M00 A2955 RMK AO1 PRESRR SLP031
SPECI CYNL 161828Z AUTO 32007KT 9SM SCT007 BKN013 01/M00 A2955 RMK AO1 PRESRR SLP031
SPECI CYNL 161824Z AUTO 33008KT 9SM FEW006 BKN008 OVC013 01/M00 A2955 RMK AO1 PRESRR SLP031
SPECI CYNL 161822Z AUTO 33009KT 9SM FEW006 SCT008 BKN010 01/M00 A2955 RMK AO1 PRESRR SLP030
SPECI CYNL 161820Z AUTO 32008KT 3SM FEW006 BKN008 OVC012 01/00 A2954 RMK AO1 PRESRR SLP030
SPECI CYNL 161819Z AUTO 32008KT 1 3/4SM VV010 01/00 A2954 RMK AO1 PRESRR SLP029
SPECI CYNL 161817Z AUTO 33007KT 1 1/4SM VV010 01/00 A2954 RMK AO1 PRESRR SLP029
SPECI CYNL 161815Z AUTO 32008KT 2 1/2SM FEW006 SCT008 OVC012 01/00 A2954 RMK AO1 PRESRR SLP029
SPECI CYNL 161813Z AUTO 32007KT 3SM SCT007 BKN010 OVC013 01/00 A2954 RMK AO1 PRESRR SLP029
SPECI CYNL 161812Z AUTO 32007KT 2 1/2SM BKN007 OVC013 01/00 A2954 RMK AO1 PRESRR SLP029
SPECI CYNL 161811Z AUTO 31007KT 2 1/2SM SCT006 BKN010 OVC013 01/00 A2954 RMK AO1 PRESRR SLP028
METAR CYNL 161800Z AUTO 32006KT 4SM BKN006 OVC011 01/00 A2953 RMK AO1 PRESRR SLP025
SPECI CYNL 161757Z AUTO 33006KT 5SM BKN006 OVC011 01/00 A2953 RMK AO1 PRESRR SLP024
SPECI CYNL 161756Z AUTO 33007KT 2 1/2SM BKN006 OVC011 01/00 A2953 RMK AO1 PRESRR SLP024
SPECI CYNL 161748Z AUTO 32006KT 1 3/4SM BKN006 OVC010 01/00 A2953 RMK AO1 PRESRR SLP024
SPECI CYNL 161746Z AUTO 32006KT 2 1/2SM BKN006 OVC011 01/00 A2953 RMK AO1 PRESRR SLP024
METAR CYNL 161700Z AUTO 32009KT 9SM BKN006 OVC007 01/M00 A2949 RMK AO1 PRESRR SLP013
METAR CYNL 161600Z AUTO 33007KT 5SM BKN005 OVC008 01/01 A2945 RMK AO1 PRESRR SLP997
SPECI CYNL 161542Z AUTO 33006KT 3SM BKN005 OVC008 01/01 A2943 RMK AO1 PRESRR SLP991
SPECI CYNL 161541Z AUTO 33007KT 2 1/2SM BKN005 OVC008 01/01 A2943 RMK AO1 PRESRR SLP991
SPECI CYNL 161521Z AUTO 32005KT 3SM VV007 01/01 A2941 RMK AO1 PRESRR SLP985
SPECI CYNL 161518Z AUTO 32006KT 2SM VV007 01/01 A2941 RMK AO1 PRESRR SLP984
SPECI CYNL 161512Z AUTO 33007KT 1 1/2SM VV007 01/01 A2941 RMK AO1 PRESRR SLP983
SPECI CYNL 161509Z AUTO 32006KT 1SM VV006 01/01 A2941 RMK AO1 PRESRR SLP983
SPECI CYNL 161508Z AUTO 32006KT 3/4SM VV006 01/01 A2940 RMK AO1 PRESRR SLP983
SPECI CYNL 161506Z AUTO 33005KT 1SM VV006 01/01 A2940 RMK AO1 PRESRR SLP982
SPECI CYNL 161505Z AUTO 32006KT 3/4SM VV006 01/00 A2940 RMK AO1 PRESRR SLP982
METAR CYNL 161500Z AUTO 32005KT 5/8SM VV006 01/00 A2940 RMK AO1 PRESRR SLP981
SPECI CYNL 161459Z AUTO 33005KT 5/8SM VV006 01/00 A2940 RMK AO1 PRESRR SLP980
SPECI CYNL 161454Z AUTO 33005KT 1SM VV005 01/00 A2940 RMK AO1 SLP979
SPECI CYNL 161441Z AUTO 32005KT 5/8SM VV009 01/01 A2939 RMK AO1 SLP977
SPECI CYNL 161440Z AUTO 32005KT 3/4SM VV009 01/01 A2939 RMK AO1 SLP976
SPECI CYNL 161439Z AUTO 32006KT 3/4SM VV010 01/01 A2939 RMK AO1 SLP976
SPECI CYNL 161433Z AUTO 32006KT 1SM VV010 01/01 A2938 RMK AO1 SLP975
SPECI CYNL 161432Z AUTO 32005KT 1SM VV009 01/01 A2938 RMK AO1 SLP975
SPECI CYNL 161430Z AUTO 32005KT 3/4SM VV009 01/01 A2938 RMK AO1 SLP974
SPECI CYNL 161414Z AUTO 33004KT 1/2SM VV009 01/00 A2938 RMK AO1 SLP973
SPECI CYNL 161412Z AUTO 34004KT 5/8SM VV010 01/00 A2938 RMK AO1 SLP973
SPECI CYNL 161411Z AUTO 34004KT 3/4SM VV010 01/00 A2938 RMK AO1 SLP973
SPECI CYNL 161408Z AUTO 33004KT 1 1/4SM VV010 01/01 A2938 RMK AO1 SLP973
SPECI CYNL 161406Z AUTO 33004KT 1 1/2SM VV010 01/01 A2938 RMK AO1 SLP972
SPECI CYNL 161403Z AUTO 34005KT 1 1/4SM VV008 01/01 A2937 RMK AO1 SLP972
METAR CYNL 161400Z AUTO 34004KT 1 3/4SM VV007 01/01 A2937 RMK AO1 SLP971
SPECI CYNL 161359Z AUTO 35004KT 1 3/4SM VV006 01/01 A2937 RMK AO1 SLP970
SPECI CYNL 161357Z AUTO 35004KT 2SM VV005 01/01 A2937 RMK AO1 PRESFR SLP970
SPECI CYNL 161353Z AUTO 35004KT 2 1/2SM VV004 01/01 A2937 RMK AO1 PRESFR SLP970
SPECI CYNL 161351Z AUTO 35004KT 2 1/2SM VV005 01/01 A2937 RMK AO1 PRESFR SLP970
SPECI CYNL 161344Z AUTO 02003KT 3SM VV005 01/01 A2937 RMK AO1 PRESFR SLP969
SPECI CYNL 161340Z AUTO 02003KT 3SM VV003 01/01 A2937 RMK AO1 PRESFR SLP969
SPECI CYNL 161337Z AUTO 00000KT 2SM VV003 01/01 A2937 RMK AO1 PRESFR SLP969
SPECI CYNL 161335Z AUTO 00000KT 1 3/4SM VV003 01/01 A2937 RMK AO1 PRESFR SLP970
SPECI CYNL 161328Z AUTO 00000KT 2 1/2SM BKN003 OVC005 01/01 A2936 RMK AO1 PRESFR SLP968
SPECI CYNL 161312Z AUTO 00000KT 3SM VV004 01/01 A2936 RMK AO1 PRESFR SLP968
SPECI CYNL 161310Z AUTO 11002KT 2 1/2SM VV004 01/01 A2936 RMK AO1 PRESFR SLP967
SPECI CYNL 161302Z AUTO 12002KT 2SM VV005 01/01 A2937 RMK AO1 PRESFR SLP968
METAR CYNL 161300Z AUTO 00000KT 2 1/2SM VV004 01/01 A2937 RMK AO1 PRESFR SLP968
SPECI CYNL 161250Z AUTO 00000KT 2 1/2SM VV003 01/01 A2937 RMK AO1 SLP970
SPECI CYNL 161243Z AUTO 00000KT 8SM VV004 01/01 A2937 RMK AO1 SLP971
SPECI CYNL 161217Z AUTO 00000KT 3SM VV005 01/01 A2938 RMK AO1 SLP972
SPECI CYNL 161214Z AUTO 17002KT 2 1/2SM VV005 01/01 A2938 RMK AO1 SLP974
SPECI CYNL 161213Z AUTO 18002KT 1 1/2SM VV005 01/01 A2938 RMK AO1 SLP974
SPECI CYNL 161209Z AUTO 00000KT 1 3/4SM VV004 01/01 A2938 RMK AO1 SLP974
METAR CYNL 161200Z AUTO 18003KT 2 1/2SM VV004 01/01 A2939 RMK AO1 SLP976
SPECI CYNL 161157Z AUTO 19003KT 3SM VV003 01/01 A2939 RMK AO1 PRESFR SLP977
SPECI CYNL 161147Z AUTO 17002KT 2 1/2SM VV003 01/01 A2939 RMK AO1 PRESFR SLP978
SPECI CYNL 161127Z AUTO 16003KT 3SM VV003 01/01 A2940 RMK AO1 PRESFR SLP980
SPECI CYNL 161122Z AUTO 15004KT 2 1/2SM VV003 01/01 A2940 RMK AO1 PRESFR SLP980
SPECI CYNL 161118Z AUTO 15002KT 3SM VV003 01/01 A2940 RMK AO1 PRESFR SLP980
SPECI CYNL 161104Z AUTO 15003KT 2 1/2SM VV003 01/01 A2941 RMK AO1 PRESFR SLP982
METAR CYNL 161100Z AUTO 13003KT 2SM OVC002 01/01 A2940 RMK AO1 PRESFR SLP981
SPECI CYNL 161053Z AUTO 14003KT 2 1/2SM OVC002 01/01 A2941 RMK AO1 PRESFR SLP982
SPECI CYNL 161052Z AUTO 15003KT 3SM OVC002 01/01 A2941 RMK AO1 PRESFR SLP983
SPECI CYNL 161022Z AUTO 16003KT 3SM VV003 01/01 A2943 RMK AO1 PRESFR SLP989
SPECI CYNL 161009Z AUTO 17003KT 2SM VV003 01/01 A2944 RMK AO1 PRESFR SLP991
SPECI CYNL 161005Z AUTO 16004KT 1 1/2SM OVC002 01/01 A2943 RMK AO1 PRESFR SLP991
SPECI CYNL 161003Z AUTO 17004KT 1 1/2SM VV003 01/01 A2943 RMK AO1 PRESFR SLP991
METAR CYNL 161000Z AUTO 17003KT 1 1/4SM OVC002 01/01 A2944 RMK AO1 PRESFR SLP992
SPECI CYNL 160947Z AUTO 18005KT 1SM OVC002 01/01 A2945 RMK AO1 PRESFR SLP995
SPECI CYNL 160942Z AUTO 18004KT 3/4SM OVC002 01/00 A2945 RMK AO1 PRESFR SLP996
SPECI CYNL 160916Z AUTO 17004KT 1 1/4SM OVC002 00/00 A2946 RMK AO1 PRESFR SLP998
METAR CYNL 160900Z AUTO 17005KT 1 1/4SM OVC003 00/00 A2946 RMK AO1 PRESFR SLP999
METAR CYNL 160800Z AUTO 15006KT 1 1/4SM OVC004 00/00 A2949 RMK AO1 PRESFR SLP008
SPECI CYNL 160757Z AUTO 14006KT 1 1/4SM OVC004 00/00 A2949 RMK AO1 PRESFR SLP008
SPECI CYNL 160755Z AUTO 14005KT 1 3/4SM OVC004 00/00 A2949 RMK AO1 PRESFR SLP009
SPECI CYNL 160752Z AUTO 15004KT 2 1/2SM BKN004 OVC008 00/00 A2949 RMK AO1 PRESFR SLP010
SPECI CYNL 160736Z AUTO 15006KT 3SM BKN004 OVC008 00/00 A2950 RMK AO1 PRESFR SLP013
SPECI CYNL 160734Z AUTO 15006KT 2SM BKN004 OVC008 00/00 A2950 RMK AO1 PRESFR SLP014
SPECI CYNL 160730Z AUTO 15006KT 2 1/2SM VV006 00/M00 A2951 RMK AO1 PRESFR SLP014
SPECI CYNL 160729Z AUTO 15006KT 3SM VV006 00/M00 A2951 RMK AO1 PRESFR SLP014
SPECI CYNL 160728Z AUTO 15005KT 3SM BKN004 OVC008 00/M00 A2951 RMK AO1 PRESFR SLP014
SPECI CYNL 160718Z AUTO 14006KT 3SM SCT005 OVC008 00/M00 A2951 RMK AO1 PRESFR SLP015
SPECI CYNL 160715Z AUTO 14005KT 2SM SCT005 BKN008 OVC011 00/M00 A2951 RMK AO1 PRESFR SLP015
SPECI CYNL 160712Z AUTO 14006KT 1 3/4SM VV006 00/M00 A2951 RMK AO1 PRESFR SLP016
METAR CYNL 160700Z AUTO 13006KT 2 1/2SM SCT005 BKN009 OVC011 00/M00 A2952 RMK AO1 PRESFR SLP019
SPECI CYNL 160654Z AUTO 14006KT 2SM VV008 00/M00 A2953 RMK AO1 PRESFR SLP022
SPECI CYNL 160652Z AUTO 14007KT 1 3/4SM VV008 00/M00 A2953 RMK AO1 PRESFR SLP023
SPECI CYNL 160644Z AUTO 14006KT 2SM SCT005 BKN008 BKN010 00/M00 A2953 RMK AO1 PRESFR SLP026
SPECI CYNL 160639Z AUTO 13006KT 1 1/2SM VV010 00/M00 A2954 RMK AO1 PRESFR SLP027
SPECI CYNL 160637Z AUTO 14007KT 1 1/2SM SCT005 BKN008 OVC009 00/M00 A2954 RMK AO1 PRESFR SLP027
SPECI CYNL 160633Z AUTO 15006KT 1 1/4SM BKN005 OVC009 00/M00 A2954 RMK AO1 PRESFR SLP028
SPECI CYNL 160630Z AUTO 15007KT 1 3/4SM SCT005 OVC008 00/M00 A2954 RMK AO1 PRESFR SLP029
SPECI CYNL 160617Z AUTO 13006KT 2SM VV008 M00/M00 A2955 RMK AO1 PRESFR SLP031
SPECI CYNL 160616Z AUTO 12007KT 1 1/2SM VV007 M00/M00 A2955 RMK AO1 PRESFR SLP031
METAR CYNL 160600Z AUTO 14007KT 1SM VV006 M00/M01 A2956 RMK AO1 PRESFR SLP035
SPECI CYNL 160550Z AUTO 13006KT 1 1/4SM VV008 M00/M01 A2957 RMK AO1 PRESFR SLP038
SPECI CYNL 160548Z AUTO 13006KT 1 3/4SM VV008 M00/M01 A2957 RMK AO1 PRESFR SLP039
SPECI CYNL 160539Z AUTO 14006KT 2SM SCT005 BKN008 OVC015 M00/M01 A2958 RMK AO1 PRESFR SLP043
SPECI CYNL 160537Z AUTO 14007KT 1 3/4SM SCT005 BKN010 BKN014 M00/M01 A2958 RMK AO1 PRESFR SLP043
SPECI CYNL 160533Z AUTO 13009KT 2SM SCT005 BKN010 BKN014 M00/M01 A2958 RMK AO1 PRESFR SLP043
SPECI CYNL 160531Z AUTO 12010KT 1 1/2SM SCT005 BKN010 OVC017 M00/M01 A2958 RMK AO1 PRESFR SLP043
SPECI CYNL 160529Z AUTO 13008KT 1 1/2SM SCT005 BKN007 OVC013 M00/M01 A2958 RMK AO1 PRESFR SLP044
SPECI CYNL 160526Z AUTO 14007KT 1 1/2SM FEW004 SCT007 BKN010 M00/M01 A2959 RMK AO1 PRESFR SLP045
SPECI CYNL 160522Z AUTO 12009KT 1 3/4SM VV010 M00/M01 A2959 RMK AO1 PRESFR SLP045